<?xml version="1.0" encoding="UTF-8" standalone="no" ?>
<gpx xmlns="http://www.topografix.com/GPX/1/1" xmlns:xsi="http://www.w3.org/2001/XMLSchema-instance" xsi:schemaLocation="http://www.topografix.com/GPX/1/1 http://www.topografix.com/GPX/1/1/gpx.xsd" version="1.1" creator="VisuGPX - https://www.visugpx.com">
  <metadata>
    <name>2018-01-11-02</name>
    <desc><![CDATA[LES CHEMINS EN SOMME
Randonnée en marche nordique au départ de la Blanche Tache à Camon. Descendre vers le centre de Camon en contournant le fond de Creuse. Passer devant le terrain de football pour rejoindre la marais aux bœufs. Le retour par le chemin de halage et les berges des hortillonnages.]]></desc>
  </metadata>
  <trk>
    <name><![CDATA[2018-01-11-02]]></name>
    <trkseg>
      <trkpt lat="49.90051" lon="2.34079">
        <ele>43.7</ele>
        <time>2018-01-11T08:05:47Z</time>
      </trkpt>
      <trkpt lat="49.9005" lon="2.34079">
        <ele>43.7</ele>
        <time>2018-01-11T08:05:48Z</time>
      </trkpt>
      <trkpt lat="49.90041" lon="2.34073">
        <ele>42.9</ele>
        <time>2018-01-11T08:05:59Z</time>
      </trkpt>
      <trkpt lat="49.90032" lon="2.34065">
        <ele>43.4</ele>
        <time>2018-01-11T08:06:08Z</time>
      </trkpt>
      <trkpt lat="49.90024" lon="2.34061">
        <ele>43.7</ele>
        <time>2018-01-11T08:06:17Z</time>
      </trkpt>
      <trkpt lat="49.90016" lon="2.34071">
        <ele>44.5</ele>
        <time>2018-01-11T08:06:28Z</time>
      </trkpt>
      <trkpt lat="49.90008" lon="2.34077">
        <ele>43.5</ele>
        <time>2018-01-11T08:06:44Z</time>
      </trkpt>
      <trkpt lat="49.89998" lon="2.34073">
        <ele>43.4</ele>
        <time>2018-01-11T08:06:53Z</time>
      </trkpt>
      <trkpt lat="49.8999" lon="2.34067">
        <ele>42.6</ele>
        <time>2018-01-11T08:07:01Z</time>
      </trkpt>
      <trkpt lat="49.89985" lon="2.34055">
        <ele>43.1</ele>
        <time>2018-01-11T08:07:09Z</time>
      </trkpt>
      <trkpt lat="49.89981" lon="2.34042">
        <ele>42.3</ele>
        <time>2018-01-11T08:07:17Z</time>
      </trkpt>
      <trkpt lat="49.89973" lon="2.34033">
        <ele>41.8</ele>
        <time>2018-01-11T08:07:25Z</time>
      </trkpt>
      <trkpt lat="49.89965" lon="2.34028">
        <ele>42.8</ele>
        <time>2018-01-11T08:07:32Z</time>
      </trkpt>
      <trkpt lat="49.89956" lon="2.3403">
        <ele>43.5</ele>
        <time>2018-01-11T08:07:40Z</time>
      </trkpt>
      <trkpt lat="49.89947" lon="2.34037">
        <ele>43.2</ele>
        <time>2018-01-11T08:07:47Z</time>
      </trkpt>
      <trkpt lat="49.89938" lon="2.3404">
        <ele>42</ele>
        <time>2018-01-11T08:07:54Z</time>
      </trkpt>
      <trkpt lat="49.89929" lon="2.34035">
        <ele>41.7</ele>
        <time>2018-01-11T08:08:01Z</time>
      </trkpt>
      <trkpt lat="49.89919" lon="2.34032">
        <ele>39.9</ele>
        <time>2018-01-11T08:08:08Z</time>
      </trkpt>
      <trkpt lat="49.8991" lon="2.34029">
        <ele>39</ele>
        <time>2018-01-11T08:08:15Z</time>
      </trkpt>
      <trkpt lat="49.89901" lon="2.34027">
        <ele>40.2</ele>
        <time>2018-01-11T08:08:22Z</time>
      </trkpt>
      <trkpt lat="49.89891" lon="2.34025">
        <ele>41.3</ele>
        <time>2018-01-11T08:08:30Z</time>
      </trkpt>
      <trkpt lat="49.89881" lon="2.34022">
        <ele>42</ele>
        <time>2018-01-11T08:08:37Z</time>
      </trkpt>
      <trkpt lat="49.89872" lon="2.3402">
        <ele>41.5</ele>
        <time>2018-01-11T08:08:45Z</time>
      </trkpt>
      <trkpt lat="49.89862" lon="2.34019">
        <ele>41.9</ele>
        <time>2018-01-11T08:08:52Z</time>
      </trkpt>
      <trkpt lat="49.89853" lon="2.3402">
        <ele>40</ele>
        <time>2018-01-11T08:09:00Z</time>
      </trkpt>
      <trkpt lat="49.89843" lon="2.34023">
        <ele>38.1</ele>
        <time>2018-01-11T08:09:07Z</time>
      </trkpt>
      <trkpt lat="49.89833" lon="2.34026">
        <ele>38.1</ele>
        <time>2018-01-11T08:09:14Z</time>
      </trkpt>
      <trkpt lat="49.89824" lon="2.3403">
        <ele>37.3</ele>
        <time>2018-01-11T08:09:21Z</time>
      </trkpt>
      <trkpt lat="49.89815" lon="2.34033">
        <ele>39.2</ele>
        <time>2018-01-11T08:09:29Z</time>
      </trkpt>
      <trkpt lat="49.89805" lon="2.34033">
        <ele>39.7</ele>
        <time>2018-01-11T08:09:37Z</time>
      </trkpt>
      <trkpt lat="49.89796" lon="2.34032">
        <ele>39</ele>
        <time>2018-01-11T08:09:44Z</time>
      </trkpt>
      <trkpt lat="49.89786" lon="2.34027">
        <ele>39.3</ele>
        <time>2018-01-11T08:09:51Z</time>
      </trkpt>
      <trkpt lat="49.89778" lon="2.34018">
        <ele>38.1</ele>
        <time>2018-01-11T08:09:59Z</time>
      </trkpt>
      <trkpt lat="49.89771" lon="2.34008">
        <ele>36.6</ele>
        <time>2018-01-11T08:10:06Z</time>
      </trkpt>
      <trkpt lat="49.89763" lon="2.33998">
        <ele>34.9</ele>
        <time>2018-01-11T08:10:13Z</time>
      </trkpt>
      <trkpt lat="49.89756" lon="2.33987">
        <ele>35.7</ele>
        <time>2018-01-11T08:10:21Z</time>
      </trkpt>
      <trkpt lat="49.89749" lon="2.33978">
        <ele>36.2</ele>
        <time>2018-01-11T08:10:28Z</time>
      </trkpt>
      <trkpt lat="49.89742" lon="2.33967">
        <ele>35.9</ele>
        <time>2018-01-11T08:10:35Z</time>
      </trkpt>
      <trkpt lat="49.89734" lon="2.33959">
        <ele>35.5</ele>
        <time>2018-01-11T08:10:42Z</time>
      </trkpt>
      <trkpt lat="49.89725" lon="2.33956">
        <ele>35.2</ele>
        <time>2018-01-11T08:10:49Z</time>
      </trkpt>
      <trkpt lat="49.89716" lon="2.3395">
        <ele>35.6</ele>
        <time>2018-01-11T08:10:57Z</time>
      </trkpt>
      <trkpt lat="49.89707" lon="2.33947">
        <ele>35.3</ele>
        <time>2018-01-11T08:11:04Z</time>
      </trkpt>
      <trkpt lat="49.89698" lon="2.33953">
        <ele>35.5</ele>
        <time>2018-01-11T08:11:12Z</time>
      </trkpt>
      <trkpt lat="49.89692" lon="2.33965">
        <ele>34.4</ele>
        <time>2018-01-11T08:11:20Z</time>
      </trkpt>
      <trkpt lat="49.89685" lon="2.33977">
        <ele>30.5</ele>
        <time>2018-01-11T08:11:28Z</time>
      </trkpt>
      <trkpt lat="49.89679" lon="2.33988">
        <ele>30.7</ele>
        <time>2018-01-11T08:11:35Z</time>
      </trkpt>
      <trkpt lat="49.89672" lon="2.33999">
        <ele>31.5</ele>
        <time>2018-01-11T08:11:41Z</time>
      </trkpt>
      <trkpt lat="49.89666" lon="2.3401">
        <ele>33</ele>
        <time>2018-01-11T08:11:48Z</time>
      </trkpt>
      <trkpt lat="49.89658" lon="2.3402">
        <ele>33.4</ele>
        <time>2018-01-11T08:11:55Z</time>
      </trkpt>
      <trkpt lat="49.89652" lon="2.3403">
        <ele>33.5</ele>
        <time>2018-01-11T08:12:02Z</time>
      </trkpt>
      <trkpt lat="49.89646" lon="2.34041">
        <ele>33.2</ele>
        <time>2018-01-11T08:12:08Z</time>
      </trkpt>
      <trkpt lat="49.89638" lon="2.34051">
        <ele>32.4</ele>
        <time>2018-01-11T08:12:15Z</time>
      </trkpt>
      <trkpt lat="49.89631" lon="2.34061">
        <ele>33.2</ele>
        <time>2018-01-11T08:12:21Z</time>
      </trkpt>
      <trkpt lat="49.89624" lon="2.34071">
        <ele>33</ele>
        <time>2018-01-11T08:12:28Z</time>
      </trkpt>
      <trkpt lat="49.89617" lon="2.3408">
        <ele>31.7</ele>
        <time>2018-01-11T08:12:34Z</time>
      </trkpt>
      <trkpt lat="49.8961" lon="2.34089">
        <ele>34</ele>
        <time>2018-01-11T08:12:41Z</time>
      </trkpt>
      <trkpt lat="49.89601" lon="2.34096">
        <ele>34.6</ele>
        <time>2018-01-11T08:12:48Z</time>
      </trkpt>
      <trkpt lat="49.89592" lon="2.34101">
        <ele>35.8</ele>
        <time>2018-01-11T08:12:55Z</time>
      </trkpt>
      <trkpt lat="49.89583" lon="2.34109">
        <ele>36.5</ele>
        <time>2018-01-11T08:13:02Z</time>
      </trkpt>
      <trkpt lat="49.89574" lon="2.34117">
        <ele>36.8</ele>
        <time>2018-01-11T08:13:10Z</time>
      </trkpt>
      <trkpt lat="49.89566" lon="2.34127">
        <ele>36</ele>
        <time>2018-01-11T08:13:18Z</time>
      </trkpt>
      <trkpt lat="49.89559" lon="2.34135">
        <ele>35.1</ele>
        <time>2018-01-11T08:13:25Z</time>
      </trkpt>
      <trkpt lat="49.89551" lon="2.34145">
        <ele>35.7</ele>
        <time>2018-01-11T08:13:32Z</time>
      </trkpt>
      <trkpt lat="49.89544" lon="2.34153">
        <ele>36.4</ele>
        <time>2018-01-11T08:13:39Z</time>
      </trkpt>
      <trkpt lat="49.89536" lon="2.34161">
        <ele>36.8</ele>
        <time>2018-01-11T08:13:46Z</time>
      </trkpt>
      <trkpt lat="49.89529" lon="2.34169">
        <ele>37.4</ele>
        <time>2018-01-11T08:13:53Z</time>
      </trkpt>
      <trkpt lat="49.89521" lon="2.34177">
        <ele>37.6</ele>
        <time>2018-01-11T08:14:00Z</time>
      </trkpt>
      <trkpt lat="49.89513" lon="2.34185">
        <ele>37.3</ele>
        <time>2018-01-11T08:14:07Z</time>
      </trkpt>
      <trkpt lat="49.89505" lon="2.34193">
        <ele>36.4</ele>
        <time>2018-01-11T08:14:14Z</time>
      </trkpt>
      <trkpt lat="49.89498" lon="2.34202">
        <ele>34.7</ele>
        <time>2018-01-11T08:14:20Z</time>
      </trkpt>
      <trkpt lat="49.89491" lon="2.34212">
        <ele>34.8</ele>
        <time>2018-01-11T08:14:26Z</time>
      </trkpt>
      <trkpt lat="49.89483" lon="2.3422">
        <ele>35.6</ele>
        <time>2018-01-11T08:14:33Z</time>
      </trkpt>
      <trkpt lat="49.89474" lon="2.34228">
        <ele>36.3</ele>
        <time>2018-01-11T08:14:40Z</time>
      </trkpt>
      <trkpt lat="49.89466" lon="2.34237">
        <ele>35.8</ele>
        <time>2018-01-11T08:14:47Z</time>
      </trkpt>
      <trkpt lat="49.89458" lon="2.34244">
        <ele>36.8</ele>
        <time>2018-01-11T08:14:54Z</time>
      </trkpt>
      <trkpt lat="49.8945" lon="2.34254">
        <ele>37.1</ele>
        <time>2018-01-11T08:15:02Z</time>
      </trkpt>
      <trkpt lat="49.89443" lon="2.34264">
        <ele>36.1</ele>
        <time>2018-01-11T08:15:10Z</time>
      </trkpt>
      <trkpt lat="49.89436" lon="2.34272">
        <ele>36.7</ele>
        <time>2018-01-11T08:15:28Z</time>
      </trkpt>
      <trkpt lat="49.89428" lon="2.34281">
        <ele>36.2</ele>
        <time>2018-01-11T08:15:37Z</time>
      </trkpt>
      <trkpt lat="49.8942" lon="2.34289">
        <ele>36.5</ele>
        <time>2018-01-11T08:15:47Z</time>
      </trkpt>
      <trkpt lat="49.89413" lon="2.34299">
        <ele>34.2</ele>
        <time>2018-01-11T08:15:55Z</time>
      </trkpt>
      <trkpt lat="49.89404" lon="2.34307">
        <ele>35.2</ele>
        <time>2018-01-11T08:16:03Z</time>
      </trkpt>
      <trkpt lat="49.89396" lon="2.34317">
        <ele>36.6</ele>
        <time>2018-01-11T08:16:10Z</time>
      </trkpt>
      <trkpt lat="49.89388" lon="2.34326">
        <ele>36.8</ele>
        <time>2018-01-11T08:16:17Z</time>
      </trkpt>
      <trkpt lat="49.8938" lon="2.34335">
        <ele>34.7</ele>
        <time>2018-01-11T08:16:24Z</time>
      </trkpt>
      <trkpt lat="49.89371" lon="2.34343">
        <ele>32.2</ele>
        <time>2018-01-11T08:16:31Z</time>
      </trkpt>
      <trkpt lat="49.89364" lon="2.34351">
        <ele>34.7</ele>
        <time>2018-01-11T08:16:37Z</time>
      </trkpt>
      <trkpt lat="49.89355" lon="2.34359">
        <ele>35</ele>
        <time>2018-01-11T08:16:44Z</time>
      </trkpt>
      <trkpt lat="49.89348" lon="2.34367">
        <ele>34.9</ele>
        <time>2018-01-11T08:16:51Z</time>
      </trkpt>
      <trkpt lat="49.8934" lon="2.34376">
        <ele>33.6</ele>
        <time>2018-01-11T08:16:59Z</time>
      </trkpt>
      <trkpt lat="49.89332" lon="2.34385">
        <ele>33.4</ele>
        <time>2018-01-11T08:17:07Z</time>
      </trkpt>
      <trkpt lat="49.89323" lon="2.34393">
        <ele>33.5</ele>
        <time>2018-01-11T08:17:14Z</time>
      </trkpt>
      <trkpt lat="49.89316" lon="2.34401">
        <ele>33.7</ele>
        <time>2018-01-11T08:17:20Z</time>
      </trkpt>
      <trkpt lat="49.89308" lon="2.3441">
        <ele>33.1</ele>
        <time>2018-01-11T08:17:27Z</time>
      </trkpt>
      <trkpt lat="49.893" lon="2.34419">
        <ele>31.2</ele>
        <time>2018-01-11T08:17:34Z</time>
      </trkpt>
      <trkpt lat="49.89292" lon="2.34427">
        <ele>31.2</ele>
        <time>2018-01-11T08:17:40Z</time>
      </trkpt>
      <trkpt lat="49.89284" lon="2.34436">
        <ele>32.1</ele>
        <time>2018-01-11T08:17:47Z</time>
      </trkpt>
      <trkpt lat="49.89277" lon="2.34445">
        <ele>32.1</ele>
        <time>2018-01-11T08:17:53Z</time>
      </trkpt>
      <trkpt lat="49.89268" lon="2.34454">
        <ele>31.4</ele>
        <time>2018-01-11T08:18:01Z</time>
      </trkpt>
      <trkpt lat="49.89262" lon="2.34465">
        <ele>31.3</ele>
        <time>2018-01-11T08:18:07Z</time>
      </trkpt>
      <trkpt lat="49.89257" lon="2.34479">
        <ele>31.1</ele>
        <time>2018-01-11T08:18:14Z</time>
      </trkpt>
      <trkpt lat="49.89253" lon="2.34492">
        <ele>30.7</ele>
        <time>2018-01-11T08:18:21Z</time>
      </trkpt>
      <trkpt lat="49.89251" lon="2.34507">
        <ele>30.5</ele>
        <time>2018-01-11T08:18:28Z</time>
      </trkpt>
      <trkpt lat="49.89251" lon="2.34521">
        <ele>30.6</ele>
        <time>2018-01-11T08:18:36Z</time>
      </trkpt>
      <trkpt lat="49.89256" lon="2.34534">
        <ele>30.3</ele>
        <time>2018-01-11T08:18:44Z</time>
      </trkpt>
      <trkpt lat="49.89262" lon="2.34547">
        <ele>30.4</ele>
        <time>2018-01-11T08:18:53Z</time>
      </trkpt>
      <trkpt lat="49.89261" lon="2.34561">
        <ele>30.1</ele>
        <time>2018-01-11T08:19:02Z</time>
      </trkpt>
      <trkpt lat="49.89254" lon="2.34573">
        <ele>30.5</ele>
        <time>2018-01-11T08:19:09Z</time>
      </trkpt>
      <trkpt lat="49.89244" lon="2.34579">
        <ele>30.4</ele>
        <time>2018-01-11T08:19:16Z</time>
      </trkpt>
      <trkpt lat="49.89235" lon="2.34581">
        <ele>30.7</ele>
        <time>2018-01-11T08:19:23Z</time>
      </trkpt>
      <trkpt lat="49.89226" lon="2.34583">
        <ele>31.6</ele>
        <time>2018-01-11T08:19:30Z</time>
      </trkpt>
      <trkpt lat="49.89216" lon="2.34583">
        <ele>32.2</ele>
        <time>2018-01-11T08:19:37Z</time>
      </trkpt>
      <trkpt lat="49.89207" lon="2.34584">
        <ele>32.5</ele>
        <time>2018-01-11T08:19:44Z</time>
      </trkpt>
      <trkpt lat="49.89198" lon="2.34584">
        <ele>32.6</ele>
        <time>2018-01-11T08:19:51Z</time>
      </trkpt>
      <trkpt lat="49.89189" lon="2.34584">
        <ele>32.8</ele>
        <time>2018-01-11T08:19:58Z</time>
      </trkpt>
      <trkpt lat="49.89179" lon="2.34587">
        <ele>32.7</ele>
        <time>2018-01-11T08:20:05Z</time>
      </trkpt>
      <trkpt lat="49.8917" lon="2.34587">
        <ele>32.8</ele>
        <time>2018-01-11T08:20:12Z</time>
      </trkpt>
      <trkpt lat="49.8916" lon="2.34586">
        <ele>33.1</ele>
        <time>2018-01-11T08:20:19Z</time>
      </trkpt>
      <trkpt lat="49.8915" lon="2.34587">
        <ele>33.2</ele>
        <time>2018-01-11T08:20:26Z</time>
      </trkpt>
      <trkpt lat="49.8914" lon="2.34588">
        <ele>33.7</ele>
        <time>2018-01-11T08:20:33Z</time>
      </trkpt>
      <trkpt lat="49.8913" lon="2.34589">
        <ele>33.9</ele>
        <time>2018-01-11T08:20:41Z</time>
      </trkpt>
      <trkpt lat="49.8912" lon="2.34591">
        <ele>33.6</ele>
        <time>2018-01-11T08:20:48Z</time>
      </trkpt>
      <trkpt lat="49.89111" lon="2.34592">
        <ele>33.4</ele>
        <time>2018-01-11T08:20:55Z</time>
      </trkpt>
      <trkpt lat="49.89103" lon="2.34601">
        <ele>33.1</ele>
        <time>2018-01-11T08:21:04Z</time>
      </trkpt>
      <trkpt lat="49.89107" lon="2.34614">
        <ele>32.6</ele>
        <time>2018-01-11T08:21:10Z</time>
      </trkpt>
      <trkpt lat="49.89114" lon="2.34625">
        <ele>32.2</ele>
        <time>2018-01-11T08:21:17Z</time>
      </trkpt>
      <trkpt lat="49.89121" lon="2.34634">
        <ele>33.6</ele>
        <time>2018-01-11T08:21:24Z</time>
      </trkpt>
      <trkpt lat="49.89124" lon="2.34648">
        <ele>33.1</ele>
        <time>2018-01-11T08:21:33Z</time>
      </trkpt>
      <trkpt lat="49.89124" lon="2.34663">
        <ele>33.6</ele>
        <time>2018-01-11T08:21:40Z</time>
      </trkpt>
      <trkpt lat="49.89124" lon="2.34679">
        <ele>33.5</ele>
        <time>2018-01-11T08:21:50Z</time>
      </trkpt>
      <trkpt lat="49.89125" lon="2.34693">
        <ele>33.4</ele>
        <time>2018-01-11T08:21:56Z</time>
      </trkpt>
      <trkpt lat="49.89133" lon="2.34702">
        <ele>34.3</ele>
        <time>2018-01-11T08:22:03Z</time>
      </trkpt>
      <trkpt lat="49.89142" lon="2.34702">
        <ele>34.8</ele>
        <time>2018-01-11T08:22:09Z</time>
      </trkpt>
      <trkpt lat="49.89151" lon="2.347">
        <ele>33.5</ele>
        <time>2018-01-11T08:22:15Z</time>
      </trkpt>
      <trkpt lat="49.89161" lon="2.34698">
        <ele>33.7</ele>
        <time>2018-01-11T08:22:22Z</time>
      </trkpt>
      <trkpt lat="49.89172" lon="2.34698">
        <ele>33.3</ele>
        <time>2018-01-11T08:22:29Z</time>
      </trkpt>
      <trkpt lat="49.89182" lon="2.34697">
        <ele>33.4</ele>
        <time>2018-01-11T08:22:36Z</time>
      </trkpt>
      <trkpt lat="49.89191" lon="2.34697">
        <ele>33.8</ele>
        <time>2018-01-11T08:22:42Z</time>
      </trkpt>
      <trkpt lat="49.89202" lon="2.34697">
        <ele>32.7</ele>
        <time>2018-01-11T08:22:49Z</time>
      </trkpt>
      <trkpt lat="49.89212" lon="2.34699">
        <ele>33.8</ele>
        <time>2018-01-11T08:22:56Z</time>
      </trkpt>
      <trkpt lat="49.89222" lon="2.34699">
        <ele>33.2</ele>
        <time>2018-01-11T08:23:03Z</time>
      </trkpt>
      <trkpt lat="49.89231" lon="2.34697">
        <ele>33.6</ele>
        <time>2018-01-11T08:23:09Z</time>
      </trkpt>
      <trkpt lat="49.89241" lon="2.34697">
        <ele>34</ele>
        <time>2018-01-11T08:23:16Z</time>
      </trkpt>
      <trkpt lat="49.8925" lon="2.34698">
        <ele>33.4</ele>
        <time>2018-01-11T08:23:23Z</time>
      </trkpt>
      <trkpt lat="49.8926" lon="2.34703">
        <ele>33.4</ele>
        <time>2018-01-11T08:23:31Z</time>
      </trkpt>
      <trkpt lat="49.89267" lon="2.34711">
        <ele>33.4</ele>
        <time>2018-01-11T08:23:38Z</time>
      </trkpt>
      <trkpt lat="49.89274" lon="2.34722">
        <ele>33.3</ele>
        <time>2018-01-11T08:23:46Z</time>
      </trkpt>
      <trkpt lat="49.89284" lon="2.34727">
        <ele>32.3</ele>
        <time>2018-01-11T08:23:54Z</time>
      </trkpt>
      <trkpt lat="49.89294" lon="2.34728">
        <ele>32.3</ele>
        <time>2018-01-11T08:24:01Z</time>
      </trkpt>
      <trkpt lat="49.89304" lon="2.34724">
        <ele>33.1</ele>
        <time>2018-01-11T08:24:09Z</time>
      </trkpt>
      <trkpt lat="49.89312" lon="2.34715">
        <ele>32.3</ele>
        <time>2018-01-11T08:24:17Z</time>
      </trkpt>
      <trkpt lat="49.89319" lon="2.34706">
        <ele>32.3</ele>
        <time>2018-01-11T08:24:24Z</time>
      </trkpt>
      <trkpt lat="49.89327" lon="2.34698">
        <ele>32.4</ele>
        <time>2018-01-11T08:24:31Z</time>
      </trkpt>
      <trkpt lat="49.89335" lon="2.34689">
        <ele>32.1</ele>
        <time>2018-01-11T08:24:38Z</time>
      </trkpt>
      <trkpt lat="49.89343" lon="2.34682">
        <ele>32.2</ele>
        <time>2018-01-11T08:24:45Z</time>
      </trkpt>
      <trkpt lat="49.89351" lon="2.34673">
        <ele>32.1</ele>
        <time>2018-01-11T08:24:52Z</time>
      </trkpt>
      <trkpt lat="49.89358" lon="2.34664">
        <ele>32.6</ele>
        <time>2018-01-11T08:25:00Z</time>
      </trkpt>
      <trkpt lat="49.89367" lon="2.34656">
        <ele>32.5</ele>
        <time>2018-01-11T08:25:06Z</time>
      </trkpt>
      <trkpt lat="49.89374" lon="2.34647">
        <ele>32.7</ele>
        <time>2018-01-11T08:25:13Z</time>
      </trkpt>
      <trkpt lat="49.89383" lon="2.34638">
        <ele>32.9</ele>
        <time>2018-01-11T08:25:20Z</time>
      </trkpt>
      <trkpt lat="49.89391" lon="2.3463">
        <ele>33</ele>
        <time>2018-01-11T08:25:27Z</time>
      </trkpt>
      <trkpt lat="49.89399" lon="2.34623">
        <ele>33.4</ele>
        <time>2018-01-11T08:25:34Z</time>
      </trkpt>
      <trkpt lat="49.89408" lon="2.34616">
        <ele>33.3</ele>
        <time>2018-01-11T08:25:42Z</time>
      </trkpt>
      <trkpt lat="49.89417" lon="2.34608">
        <ele>34.1</ele>
        <time>2018-01-11T08:25:49Z</time>
      </trkpt>
      <trkpt lat="49.89424" lon="2.34598">
        <ele>34.3</ele>
        <time>2018-01-11T08:25:57Z</time>
      </trkpt>
      <trkpt lat="49.89432" lon="2.34607">
        <ele>34.3</ele>
        <time>2018-01-11T08:26:06Z</time>
      </trkpt>
      <trkpt lat="49.89438" lon="2.34619">
        <ele>34.2</ele>
        <time>2018-01-11T08:26:13Z</time>
      </trkpt>
      <trkpt lat="49.89445" lon="2.34631">
        <ele>34.2</ele>
        <time>2018-01-11T08:26:20Z</time>
      </trkpt>
      <trkpt lat="49.89451" lon="2.34643">
        <ele>34.3</ele>
        <time>2018-01-11T08:26:27Z</time>
      </trkpt>
      <trkpt lat="49.89457" lon="2.34655">
        <ele>35.2</ele>
        <time>2018-01-11T08:26:34Z</time>
      </trkpt>
      <trkpt lat="49.89464" lon="2.34666">
        <ele>34.7</ele>
        <time>2018-01-11T08:26:41Z</time>
      </trkpt>
      <trkpt lat="49.89471" lon="2.34675">
        <ele>34.6</ele>
        <time>2018-01-11T08:26:47Z</time>
      </trkpt>
      <trkpt lat="49.89478" lon="2.34687">
        <ele>34.8</ele>
        <time>2018-01-11T08:26:54Z</time>
      </trkpt>
      <trkpt lat="49.89483" lon="2.34699">
        <ele>35.6</ele>
        <time>2018-01-11T08:27:01Z</time>
      </trkpt>
      <trkpt lat="49.89488" lon="2.3471">
        <ele>36.1</ele>
        <time>2018-01-11T08:27:08Z</time>
      </trkpt>
      <trkpt lat="49.89494" lon="2.34723">
        <ele>36.7</ele>
        <time>2018-01-11T08:27:16Z</time>
      </trkpt>
      <trkpt lat="49.89499" lon="2.34736">
        <ele>37.1</ele>
        <time>2018-01-11T08:27:24Z</time>
      </trkpt>
      <trkpt lat="49.89506" lon="2.34747">
        <ele>37.3</ele>
        <time>2018-01-11T08:27:31Z</time>
      </trkpt>
      <trkpt lat="49.89512" lon="2.34758">
        <ele>37.6</ele>
        <time>2018-01-11T08:27:38Z</time>
      </trkpt>
      <trkpt lat="49.89518" lon="2.3477">
        <ele>37.7</ele>
        <time>2018-01-11T08:27:45Z</time>
      </trkpt>
      <trkpt lat="49.89524" lon="2.34781">
        <ele>38.1</ele>
        <time>2018-01-11T08:27:52Z</time>
      </trkpt>
      <trkpt lat="49.89529" lon="2.34793">
        <ele>38</ele>
        <time>2018-01-11T08:27:59Z</time>
      </trkpt>
      <trkpt lat="49.89537" lon="2.34805">
        <ele>37.1</ele>
        <time>2018-01-11T08:28:06Z</time>
      </trkpt>
      <trkpt lat="49.89543" lon="2.34815">
        <ele>36.4</ele>
        <time>2018-01-11T08:28:12Z</time>
      </trkpt>
      <trkpt lat="49.8955" lon="2.34826">
        <ele>36.7</ele>
        <time>2018-01-11T08:28:18Z</time>
      </trkpt>
      <trkpt lat="49.89557" lon="2.34836">
        <ele>36.5</ele>
        <time>2018-01-11T08:28:24Z</time>
      </trkpt>
      <trkpt lat="49.89564" lon="2.34847">
        <ele>37.8</ele>
        <time>2018-01-11T08:28:31Z</time>
      </trkpt>
      <trkpt lat="49.89571" lon="2.34859">
        <ele>40</ele>
        <time>2018-01-11T08:28:38Z</time>
      </trkpt>
      <trkpt lat="49.89579" lon="2.34869">
        <ele>40.8</ele>
        <time>2018-01-11T08:28:45Z</time>
      </trkpt>
      <trkpt lat="49.89586" lon="2.3488">
        <ele>40.6</ele>
        <time>2018-01-11T08:28:52Z</time>
      </trkpt>
      <trkpt lat="49.89592" lon="2.34891">
        <ele>40.9</ele>
        <time>2018-01-11T08:28:59Z</time>
      </trkpt>
      <trkpt lat="49.896" lon="2.34901">
        <ele>41</ele>
        <time>2018-01-11T08:29:06Z</time>
      </trkpt>
      <trkpt lat="49.89607" lon="2.3491">
        <ele>40.6</ele>
        <time>2018-01-11T08:29:12Z</time>
      </trkpt>
      <trkpt lat="49.89615" lon="2.34919">
        <ele>39.5</ele>
        <time>2018-01-11T08:29:18Z</time>
      </trkpt>
      <trkpt lat="49.89622" lon="2.34928">
        <ele>39.4</ele>
        <time>2018-01-11T08:29:24Z</time>
      </trkpt>
      <trkpt lat="49.8963" lon="2.34937">
        <ele>40.4</ele>
        <time>2018-01-11T08:29:31Z</time>
      </trkpt>
      <trkpt lat="49.89637" lon="2.34947">
        <ele>41.5</ele>
        <time>2018-01-11T08:29:39Z</time>
      </trkpt>
      <trkpt lat="49.89643" lon="2.34957">
        <ele>40.9</ele>
        <time>2018-01-11T08:29:46Z</time>
      </trkpt>
      <trkpt lat="49.89649" lon="2.34969">
        <ele>41.2</ele>
        <time>2018-01-11T08:29:53Z</time>
      </trkpt>
      <trkpt lat="49.89656" lon="2.3498">
        <ele>40.7</ele>
        <time>2018-01-11T08:30:01Z</time>
      </trkpt>
      <trkpt lat="49.89663" lon="2.34992">
        <ele>41.7</ele>
        <time>2018-01-11T08:30:09Z</time>
      </trkpt>
      <trkpt lat="49.89671" lon="2.35001">
        <ele>42.8</ele>
        <time>2018-01-11T08:30:17Z</time>
      </trkpt>
      <trkpt lat="49.89677" lon="2.35011">
        <ele>43.2</ele>
        <time>2018-01-11T08:30:24Z</time>
      </trkpt>
      <trkpt lat="49.89686" lon="2.3502">
        <ele>43.6</ele>
        <time>2018-01-11T08:30:31Z</time>
      </trkpt>
      <trkpt lat="49.89686" lon="2.35036">
        <ele>43.9</ele>
        <time>2018-01-11T08:30:39Z</time>
      </trkpt>
      <trkpt lat="49.89681" lon="2.35049">
        <ele>44.2</ele>
        <time>2018-01-11T08:30:45Z</time>
      </trkpt>
      <trkpt lat="49.89677" lon="2.35061">
        <ele>44.1</ele>
        <time>2018-01-11T08:30:52Z</time>
      </trkpt>
      <trkpt lat="49.89671" lon="2.35075">
        <ele>43.7</ele>
        <time>2018-01-11T08:30:59Z</time>
      </trkpt>
      <trkpt lat="49.89665" lon="2.35086">
        <ele>43.5</ele>
        <time>2018-01-11T08:31:05Z</time>
      </trkpt>
      <trkpt lat="49.89659" lon="2.35098">
        <ele>42.3</ele>
        <time>2018-01-11T08:31:12Z</time>
      </trkpt>
      <trkpt lat="49.89652" lon="2.35108">
        <ele>43</ele>
        <time>2018-01-11T08:31:24Z</time>
      </trkpt>
      <trkpt lat="49.89646" lon="2.3512">
        <ele>42.9</ele>
        <time>2018-01-11T08:31:31Z</time>
      </trkpt>
      <trkpt lat="49.89641" lon="2.35133">
        <ele>42.2</ele>
        <time>2018-01-11T08:31:37Z</time>
      </trkpt>
      <trkpt lat="49.89634" lon="2.35145">
        <ele>41.8</ele>
        <time>2018-01-11T08:31:43Z</time>
      </trkpt>
      <trkpt lat="49.89628" lon="2.35158">
        <ele>40.7</ele>
        <time>2018-01-11T08:31:49Z</time>
      </trkpt>
      <trkpt lat="49.89622" lon="2.35171">
        <ele>41.9</ele>
        <time>2018-01-11T08:31:55Z</time>
      </trkpt>
      <trkpt lat="49.89616" lon="2.35184">
        <ele>41.1</ele>
        <time>2018-01-11T08:32:01Z</time>
      </trkpt>
      <trkpt lat="49.8961" lon="2.35196">
        <ele>42</ele>
        <time>2018-01-11T08:32:07Z</time>
      </trkpt>
      <trkpt lat="49.89605" lon="2.35207">
        <ele>42.3</ele>
        <time>2018-01-11T08:32:13Z</time>
      </trkpt>
      <trkpt lat="49.89598" lon="2.3522">
        <ele>41.9</ele>
        <time>2018-01-11T08:32:20Z</time>
      </trkpt>
      <trkpt lat="49.89593" lon="2.35232">
        <ele>40.7</ele>
        <time>2018-01-11T08:32:26Z</time>
      </trkpt>
      <trkpt lat="49.89586" lon="2.35242">
        <ele>41.9</ele>
        <time>2018-01-11T08:32:32Z</time>
      </trkpt>
      <trkpt lat="49.89581" lon="2.35253">
        <ele>42.2</ele>
        <time>2018-01-11T08:32:38Z</time>
      </trkpt>
      <trkpt lat="49.89576" lon="2.35266">
        <ele>41.4</ele>
        <time>2018-01-11T08:32:44Z</time>
      </trkpt>
      <trkpt lat="49.8957" lon="2.35278">
        <ele>42</ele>
        <time>2018-01-11T08:32:50Z</time>
      </trkpt>
      <trkpt lat="49.89564" lon="2.3529">
        <ele>42.8</ele>
        <time>2018-01-11T08:32:56Z</time>
      </trkpt>
      <trkpt lat="49.89559" lon="2.35303">
        <ele>42.8</ele>
        <time>2018-01-11T08:33:03Z</time>
      </trkpt>
      <trkpt lat="49.89554" lon="2.35314">
        <ele>42.5</ele>
        <time>2018-01-11T08:33:09Z</time>
      </trkpt>
      <trkpt lat="49.89548" lon="2.35327">
        <ele>42.5</ele>
        <time>2018-01-11T08:33:15Z</time>
      </trkpt>
      <trkpt lat="49.89543" lon="2.3534">
        <ele>43.2</ele>
        <time>2018-01-11T08:33:21Z</time>
      </trkpt>
      <trkpt lat="49.8954" lon="2.35354">
        <ele>43.7</ele>
        <time>2018-01-11T08:33:28Z</time>
      </trkpt>
      <trkpt lat="49.89537" lon="2.35367">
        <ele>43.2</ele>
        <time>2018-01-11T08:33:34Z</time>
      </trkpt>
      <trkpt lat="49.89532" lon="2.35381">
        <ele>43.8</ele>
        <time>2018-01-11T08:33:41Z</time>
      </trkpt>
      <trkpt lat="49.89529" lon="2.35394">
        <ele>43.8</ele>
        <time>2018-01-11T08:33:47Z</time>
      </trkpt>
      <trkpt lat="49.89524" lon="2.35407">
        <ele>43.2</ele>
        <time>2018-01-11T08:33:53Z</time>
      </trkpt>
      <trkpt lat="49.89521" lon="2.35421">
        <ele>43.3</ele>
        <time>2018-01-11T08:34:01Z</time>
      </trkpt>
      <trkpt lat="49.89519" lon="2.35435">
        <ele>43.1</ele>
        <time>2018-01-11T08:34:10Z</time>
      </trkpt>
      <trkpt lat="49.89513" lon="2.35447">
        <ele>42.6</ele>
        <time>2018-01-11T08:34:18Z</time>
      </trkpt>
      <trkpt lat="49.89508" lon="2.35461">
        <ele>41.2</ele>
        <time>2018-01-11T08:34:25Z</time>
      </trkpt>
      <trkpt lat="49.89503" lon="2.35473">
        <ele>43.2</ele>
        <time>2018-01-11T08:34:38Z</time>
      </trkpt>
      <trkpt lat="49.89496" lon="2.35482">
        <ele>41.8</ele>
        <time>2018-01-11T08:37:27Z</time>
      </trkpt>
      <trkpt lat="49.89499" lon="2.35496">
        <ele>41.1</ele>
        <time>2018-01-11T08:39:15Z</time>
      </trkpt>
      <trkpt lat="49.89497" lon="2.3551">
        <ele>39.7</ele>
        <time>2018-01-11T08:39:22Z</time>
      </trkpt>
      <trkpt lat="49.89493" lon="2.35523">
        <ele>41</ele>
        <time>2018-01-11T08:39:28Z</time>
      </trkpt>
      <trkpt lat="49.89489" lon="2.35538">
        <ele>42.4</ele>
        <time>2018-01-11T08:39:35Z</time>
      </trkpt>
      <trkpt lat="49.89485" lon="2.35551">
        <ele>43.5</ele>
        <time>2018-01-11T08:39:41Z</time>
      </trkpt>
      <trkpt lat="49.89481" lon="2.35566">
        <ele>43.6</ele>
        <time>2018-01-11T08:39:48Z</time>
      </trkpt>
      <trkpt lat="49.89477" lon="2.3558">
        <ele>43.4</ele>
        <time>2018-01-11T08:39:55Z</time>
      </trkpt>
      <trkpt lat="49.89472" lon="2.35594">
        <ele>43.5</ele>
        <time>2018-01-11T08:40:02Z</time>
      </trkpt>
      <trkpt lat="49.89468" lon="2.35607">
        <ele>44</ele>
        <time>2018-01-11T08:40:08Z</time>
      </trkpt>
      <trkpt lat="49.89464" lon="2.35619">
        <ele>44.5</ele>
        <time>2018-01-11T08:40:14Z</time>
      </trkpt>
      <trkpt lat="49.8946" lon="2.35634">
        <ele>43.9</ele>
        <time>2018-01-11T08:40:21Z</time>
      </trkpt>
      <trkpt lat="49.89456" lon="2.35649">
        <ele>44.6</ele>
        <time>2018-01-11T08:40:28Z</time>
      </trkpt>
      <trkpt lat="49.89451" lon="2.35662">
        <ele>42.7</ele>
        <time>2018-01-11T08:40:34Z</time>
      </trkpt>
      <trkpt lat="49.89447" lon="2.35675">
        <ele>44.1</ele>
        <time>2018-01-11T08:40:40Z</time>
      </trkpt>
      <trkpt lat="49.89443" lon="2.35688">
        <ele>43.4</ele>
        <time>2018-01-11T08:40:46Z</time>
      </trkpt>
      <trkpt lat="49.89439" lon="2.35701">
        <ele>44.5</ele>
        <time>2018-01-11T08:40:52Z</time>
      </trkpt>
      <trkpt lat="49.89435" lon="2.35715">
        <ele>43.4</ele>
        <time>2018-01-11T08:40:58Z</time>
      </trkpt>
      <trkpt lat="49.89431" lon="2.35728">
        <ele>44.3</ele>
        <time>2018-01-11T08:41:04Z</time>
      </trkpt>
      <trkpt lat="49.89427" lon="2.35742">
        <ele>43.5</ele>
        <time>2018-01-11T08:41:10Z</time>
      </trkpt>
      <trkpt lat="49.89422" lon="2.35755">
        <ele>42.2</ele>
        <time>2018-01-11T08:41:16Z</time>
      </trkpt>
      <trkpt lat="49.89418" lon="2.35769">
        <ele>43</ele>
        <time>2018-01-11T08:41:22Z</time>
      </trkpt>
      <trkpt lat="49.89414" lon="2.35783">
        <ele>39.9</ele>
        <time>2018-01-11T08:41:28Z</time>
      </trkpt>
      <trkpt lat="49.8941" lon="2.35797">
        <ele>42.4</ele>
        <time>2018-01-11T08:41:35Z</time>
      </trkpt>
      <trkpt lat="49.89406" lon="2.3581">
        <ele>41.3</ele>
        <time>2018-01-11T08:41:41Z</time>
      </trkpt>
      <trkpt lat="49.89402" lon="2.35824">
        <ele>40.6</ele>
        <time>2018-01-11T08:41:47Z</time>
      </trkpt>
      <trkpt lat="49.89397" lon="2.35838">
        <ele>42.4</ele>
        <time>2018-01-11T08:41:54Z</time>
      </trkpt>
      <trkpt lat="49.89392" lon="2.35851">
        <ele>39</ele>
        <time>2018-01-11T08:42:00Z</time>
      </trkpt>
      <trkpt lat="49.89387" lon="2.35863">
        <ele>42.6</ele>
        <time>2018-01-11T08:42:06Z</time>
      </trkpt>
      <trkpt lat="49.89382" lon="2.35877">
        <ele>41.6</ele>
        <time>2018-01-11T08:42:12Z</time>
      </trkpt>
      <trkpt lat="49.89376" lon="2.35889">
        <ele>41.6</ele>
        <time>2018-01-11T08:42:18Z</time>
      </trkpt>
      <trkpt lat="49.89372" lon="2.35901">
        <ele>42.9</ele>
        <time>2018-01-11T08:42:24Z</time>
      </trkpt>
      <trkpt lat="49.89366" lon="2.35913">
        <ele>42.8</ele>
        <time>2018-01-11T08:42:30Z</time>
      </trkpt>
      <trkpt lat="49.8936" lon="2.35924">
        <ele>42.7</ele>
        <time>2018-01-11T08:42:36Z</time>
      </trkpt>
      <trkpt lat="49.89355" lon="2.35936">
        <ele>42.9</ele>
        <time>2018-01-11T08:42:42Z</time>
      </trkpt>
      <trkpt lat="49.89349" lon="2.35948">
        <ele>41.1</ele>
        <time>2018-01-11T08:42:48Z</time>
      </trkpt>
      <trkpt lat="49.89343" lon="2.35959">
        <ele>43.4</ele>
        <time>2018-01-11T08:42:54Z</time>
      </trkpt>
      <trkpt lat="49.89337" lon="2.35973">
        <ele>42.4</ele>
        <time>2018-01-11T08:43:01Z</time>
      </trkpt>
      <trkpt lat="49.89331" lon="2.35985">
        <ele>42.9</ele>
        <time>2018-01-11T08:43:07Z</time>
      </trkpt>
      <trkpt lat="49.89325" lon="2.35997">
        <ele>44</ele>
        <time>2018-01-11T08:43:14Z</time>
      </trkpt>
      <trkpt lat="49.8932" lon="2.36008">
        <ele>43.8</ele>
        <time>2018-01-11T08:43:20Z</time>
      </trkpt>
      <trkpt lat="49.89314" lon="2.36021">
        <ele>45.1</ele>
        <time>2018-01-11T08:43:27Z</time>
      </trkpt>
      <trkpt lat="49.89309" lon="2.36033">
        <ele>42.6</ele>
        <time>2018-01-11T08:43:33Z</time>
      </trkpt>
      <trkpt lat="49.89302" lon="2.36043">
        <ele>45.1</ele>
        <time>2018-01-11T08:43:39Z</time>
      </trkpt>
      <trkpt lat="49.89296" lon="2.36056">
        <ele>44.7</ele>
        <time>2018-01-11T08:43:46Z</time>
      </trkpt>
      <trkpt lat="49.89289" lon="2.36067">
        <ele>42.3</ele>
        <time>2018-01-11T08:43:52Z</time>
      </trkpt>
      <trkpt lat="49.89282" lon="2.36077">
        <ele>46</ele>
        <time>2018-01-11T08:43:58Z</time>
      </trkpt>
      <trkpt lat="49.89276" lon="2.36087">
        <ele>44.7</ele>
        <time>2018-01-11T08:44:04Z</time>
      </trkpt>
      <trkpt lat="49.89269" lon="2.36097">
        <ele>46.3</ele>
        <time>2018-01-11T08:44:10Z</time>
      </trkpt>
      <trkpt lat="49.89262" lon="2.36107">
        <ele>47.3</ele>
        <time>2018-01-11T08:44:16Z</time>
      </trkpt>
      <trkpt lat="49.89255" lon="2.36116">
        <ele>45.9</ele>
        <time>2018-01-11T08:44:22Z</time>
      </trkpt>
      <trkpt lat="49.89247" lon="2.36125">
        <ele>46.7</ele>
        <time>2018-01-11T08:44:29Z</time>
      </trkpt>
      <trkpt lat="49.89238" lon="2.36133">
        <ele>46</ele>
        <time>2018-01-11T08:44:36Z</time>
      </trkpt>
      <trkpt lat="49.8923" lon="2.36124">
        <ele>47.5</ele>
        <time>2018-01-11T08:44:44Z</time>
      </trkpt>
      <trkpt lat="49.89228" lon="2.36108">
        <ele>47.1</ele>
        <time>2018-01-11T08:44:51Z</time>
      </trkpt>
      <trkpt lat="49.89227" lon="2.36092">
        <ele>45.1</ele>
        <time>2018-01-11T08:44:58Z</time>
      </trkpt>
      <trkpt lat="49.89226" lon="2.36077">
        <ele>44.5</ele>
        <time>2018-01-11T08:45:05Z</time>
      </trkpt>
      <trkpt lat="49.89225" lon="2.36063">
        <ele>45</ele>
        <time>2018-01-11T08:45:11Z</time>
      </trkpt>
      <trkpt lat="49.89224" lon="2.36049">
        <ele>45.5</ele>
        <time>2018-01-11T08:45:17Z</time>
      </trkpt>
      <trkpt lat="49.89224" lon="2.36033">
        <ele>45.5</ele>
        <time>2018-01-11T08:45:24Z</time>
      </trkpt>
      <trkpt lat="49.89222" lon="2.36016">
        <ele>45</ele>
        <time>2018-01-11T08:45:31Z</time>
      </trkpt>
      <trkpt lat="49.89221" lon="2.36001">
        <ele>44.1</ele>
        <time>2018-01-11T08:45:38Z</time>
      </trkpt>
      <trkpt lat="49.89219" lon="2.35987">
        <ele>42.5</ele>
        <time>2018-01-11T08:45:44Z</time>
      </trkpt>
      <trkpt lat="49.89217" lon="2.35973">
        <ele>39.9</ele>
        <time>2018-01-11T08:45:50Z</time>
      </trkpt>
      <trkpt lat="49.89214" lon="2.35958">
        <ele>41.9</ele>
        <time>2018-01-11T08:45:56Z</time>
      </trkpt>
      <trkpt lat="49.89211" lon="2.35944">
        <ele>43.9</ele>
        <time>2018-01-11T08:46:02Z</time>
      </trkpt>
      <trkpt lat="49.89207" lon="2.35929">
        <ele>44.1</ele>
        <time>2018-01-11T08:46:09Z</time>
      </trkpt>
      <trkpt lat="49.89204" lon="2.35914">
        <ele>43.3</ele>
        <time>2018-01-11T08:46:15Z</time>
      </trkpt>
      <trkpt lat="49.89198" lon="2.359">
        <ele>39.9</ele>
        <time>2018-01-11T08:46:22Z</time>
      </trkpt>
      <trkpt lat="49.89193" lon="2.35888">
        <ele>41.9</ele>
        <time>2018-01-11T08:46:29Z</time>
      </trkpt>
      <trkpt lat="49.89186" lon="2.35878">
        <ele>42.1</ele>
        <time>2018-01-11T08:46:36Z</time>
      </trkpt>
      <trkpt lat="49.8918" lon="2.35867">
        <ele>40.1</ele>
        <time>2018-01-11T08:46:42Z</time>
      </trkpt>
      <trkpt lat="49.89174" lon="2.35855">
        <ele>41.7</ele>
        <time>2018-01-11T08:46:48Z</time>
      </trkpt>
      <trkpt lat="49.89168" lon="2.35844">
        <ele>41.1</ele>
        <time>2018-01-11T08:46:54Z</time>
      </trkpt>
      <trkpt lat="49.89161" lon="2.35833">
        <ele>35.5</ele>
        <time>2018-01-11T08:47:00Z</time>
      </trkpt>
      <trkpt lat="49.89155" lon="2.35821">
        <ele>40</ele>
        <time>2018-01-11T08:47:06Z</time>
      </trkpt>
      <trkpt lat="49.8915" lon="2.35809">
        <ele>40.6</ele>
        <time>2018-01-11T08:47:12Z</time>
      </trkpt>
      <trkpt lat="49.89144" lon="2.35796">
        <ele>39.3</ele>
        <time>2018-01-11T08:47:18Z</time>
      </trkpt>
      <trkpt lat="49.89139" lon="2.35783">
        <ele>38.7</ele>
        <time>2018-01-11T08:47:25Z</time>
      </trkpt>
      <trkpt lat="49.89133" lon="2.35771">
        <ele>40.6</ele>
        <time>2018-01-11T08:47:31Z</time>
      </trkpt>
      <trkpt lat="49.89126" lon="2.3576">
        <ele>40.7</ele>
        <time>2018-01-11T08:47:37Z</time>
      </trkpt>
      <trkpt lat="49.89119" lon="2.35751">
        <ele>37.4</ele>
        <time>2018-01-11T08:47:43Z</time>
      </trkpt>
      <trkpt lat="49.89112" lon="2.35742">
        <ele>38.4</ele>
        <time>2018-01-11T08:47:49Z</time>
      </trkpt>
      <trkpt lat="49.89104" lon="2.35732">
        <ele>39.9</ele>
        <time>2018-01-11T08:47:55Z</time>
      </trkpt>
      <trkpt lat="49.89096" lon="2.35723">
        <ele>38.7</ele>
        <time>2018-01-11T08:48:01Z</time>
      </trkpt>
      <trkpt lat="49.89089" lon="2.35715">
        <ele>37</ele>
        <time>2018-01-11T08:48:07Z</time>
      </trkpt>
      <trkpt lat="49.89081" lon="2.35705">
        <ele>38.7</ele>
        <time>2018-01-11T08:48:13Z</time>
      </trkpt>
      <trkpt lat="49.89074" lon="2.35695">
        <ele>38.6</ele>
        <time>2018-01-11T08:48:19Z</time>
      </trkpt>
      <trkpt lat="49.89067" lon="2.35685">
        <ele>38.1</ele>
        <time>2018-01-11T08:48:25Z</time>
      </trkpt>
      <trkpt lat="49.89061" lon="2.35675">
        <ele>35.4</ele>
        <time>2018-01-11T08:48:31Z</time>
      </trkpt>
      <trkpt lat="49.89054" lon="2.35664">
        <ele>37.7</ele>
        <time>2018-01-11T08:48:37Z</time>
      </trkpt>
      <trkpt lat="49.89048" lon="2.35654">
        <ele>38.2</ele>
        <time>2018-01-11T08:48:43Z</time>
      </trkpt>
      <trkpt lat="49.89041" lon="2.35643">
        <ele>35.6</ele>
        <time>2018-01-11T08:48:49Z</time>
      </trkpt>
      <trkpt lat="49.89034" lon="2.35633">
        <ele>35.7</ele>
        <time>2018-01-11T08:48:55Z</time>
      </trkpt>
      <trkpt lat="49.89028" lon="2.35622">
        <ele>37.3</ele>
        <time>2018-01-11T08:49:02Z</time>
      </trkpt>
      <trkpt lat="49.89022" lon="2.35611">
        <ele>34.9</ele>
        <time>2018-01-11T08:49:09Z</time>
      </trkpt>
      <trkpt lat="49.89015" lon="2.35599">
        <ele>36.7</ele>
        <time>2018-01-11T08:49:15Z</time>
      </trkpt>
      <trkpt lat="49.8901" lon="2.35587">
        <ele>37.6</ele>
        <time>2018-01-11T08:49:21Z</time>
      </trkpt>
      <trkpt lat="49.89003" lon="2.35576">
        <ele>36.9</ele>
        <time>2018-01-11T08:49:27Z</time>
      </trkpt>
      <trkpt lat="49.88997" lon="2.35565">
        <ele>32.1</ele>
        <time>2018-01-11T08:49:33Z</time>
      </trkpt>
      <trkpt lat="49.88991" lon="2.35553">
        <ele>36.1</ele>
        <time>2018-01-11T08:49:39Z</time>
      </trkpt>
      <trkpt lat="49.88984" lon="2.35542">
        <ele>36.9</ele>
        <time>2018-01-11T08:49:45Z</time>
      </trkpt>
      <trkpt lat="49.88977" lon="2.35531">
        <ele>32.6</ele>
        <time>2018-01-11T08:49:52Z</time>
      </trkpt>
      <trkpt lat="49.88971" lon="2.3552">
        <ele>35.1</ele>
        <time>2018-01-11T08:49:58Z</time>
      </trkpt>
      <trkpt lat="49.88963" lon="2.35508">
        <ele>35.8</ele>
        <time>2018-01-11T08:50:05Z</time>
      </trkpt>
      <trkpt lat="49.88957" lon="2.35497">
        <ele>32.6</ele>
        <time>2018-01-11T08:50:11Z</time>
      </trkpt>
      <trkpt lat="49.88951" lon="2.35486">
        <ele>34.3</ele>
        <time>2018-01-11T08:50:17Z</time>
      </trkpt>
      <trkpt lat="49.88945" lon="2.35475">
        <ele>35.4</ele>
        <time>2018-01-11T08:50:23Z</time>
      </trkpt>
      <trkpt lat="49.88939" lon="2.35465">
        <ele>34.8</ele>
        <time>2018-01-11T08:50:29Z</time>
      </trkpt>
      <trkpt lat="49.88932" lon="2.35454">
        <ele>33.2</ele>
        <time>2018-01-11T08:50:35Z</time>
      </trkpt>
      <trkpt lat="49.88926" lon="2.35442">
        <ele>34.4</ele>
        <time>2018-01-11T08:50:42Z</time>
      </trkpt>
      <trkpt lat="49.88919" lon="2.35431">
        <ele>32.2</ele>
        <time>2018-01-11T08:50:48Z</time>
      </trkpt>
      <trkpt lat="49.88913" lon="2.35419">
        <ele>34.1</ele>
        <time>2018-01-11T08:50:55Z</time>
      </trkpt>
      <trkpt lat="49.88908" lon="2.35406">
        <ele>34.1</ele>
        <time>2018-01-11T08:51:01Z</time>
      </trkpt>
      <trkpt lat="49.88902" lon="2.35394">
        <ele>31.9</ele>
        <time>2018-01-11T08:51:07Z</time>
      </trkpt>
      <trkpt lat="49.88897" lon="2.35381">
        <ele>32.5</ele>
        <time>2018-01-11T08:51:13Z</time>
      </trkpt>
      <trkpt lat="49.88891" lon="2.35368">
        <ele>34</ele>
        <time>2018-01-11T08:51:19Z</time>
      </trkpt>
      <trkpt lat="49.88885" lon="2.35357">
        <ele>33.2</ele>
        <time>2018-01-11T08:51:25Z</time>
      </trkpt>
      <trkpt lat="49.88879" lon="2.35345">
        <ele>33.3</ele>
        <time>2018-01-11T08:51:31Z</time>
      </trkpt>
      <trkpt lat="49.88874" lon="2.35332">
        <ele>34.3</ele>
        <time>2018-01-11T08:51:37Z</time>
      </trkpt>
      <trkpt lat="49.88869" lon="2.3532">
        <ele>33.8</ele>
        <time>2018-01-11T08:51:43Z</time>
      </trkpt>
      <trkpt lat="49.88863" lon="2.35309">
        <ele>29.8</ele>
        <time>2018-01-11T08:51:49Z</time>
      </trkpt>
      <trkpt lat="49.88858" lon="2.35296">
        <ele>33.6</ele>
        <time>2018-01-11T08:51:55Z</time>
      </trkpt>
      <trkpt lat="49.88852" lon="2.35284">
        <ele>34.1</ele>
        <time>2018-01-11T08:52:01Z</time>
      </trkpt>
      <trkpt lat="49.88846" lon="2.35272">
        <ele>33.9</ele>
        <time>2018-01-11T08:52:07Z</time>
      </trkpt>
      <trkpt lat="49.88841" lon="2.35259">
        <ele>34.9</ele>
        <time>2018-01-11T08:52:13Z</time>
      </trkpt>
      <trkpt lat="49.88836" lon="2.35247">
        <ele>32.4</ele>
        <time>2018-01-11T08:52:19Z</time>
      </trkpt>
      <trkpt lat="49.8883" lon="2.35234">
        <ele>31.1</ele>
        <time>2018-01-11T08:52:25Z</time>
      </trkpt>
      <trkpt lat="49.88825" lon="2.35221">
        <ele>34</ele>
        <time>2018-01-11T08:52:31Z</time>
      </trkpt>
      <trkpt lat="49.8882" lon="2.35209">
        <ele>34.2</ele>
        <time>2018-01-11T08:52:37Z</time>
      </trkpt>
      <trkpt lat="49.88814" lon="2.35196">
        <ele>30.9</ele>
        <time>2018-01-11T08:52:43Z</time>
      </trkpt>
      <trkpt lat="49.88809" lon="2.35183">
        <ele>33.6</ele>
        <time>2018-01-11T08:52:49Z</time>
      </trkpt>
      <trkpt lat="49.88805" lon="2.35168">
        <ele>33.8</ele>
        <time>2018-01-11T08:52:56Z</time>
      </trkpt>
      <trkpt lat="49.88811" lon="2.35157">
        <ele>31.2</ele>
        <time>2018-01-11T08:53:02Z</time>
      </trkpt>
      <trkpt lat="49.88819" lon="2.35148">
        <ele>33</ele>
        <time>2018-01-11T08:53:08Z</time>
      </trkpt>
      <trkpt lat="49.88827" lon="2.35138">
        <ele>33.1</ele>
        <time>2018-01-11T08:53:15Z</time>
      </trkpt>
      <trkpt lat="49.88825" lon="2.35122">
        <ele>30.8</ele>
        <time>2018-01-11T08:53:22Z</time>
      </trkpt>
      <trkpt lat="49.8882" lon="2.35109">
        <ele>26.7</ele>
        <time>2018-01-11T08:53:28Z</time>
      </trkpt>
      <trkpt lat="49.88815" lon="2.35096">
        <ele>30.7</ele>
        <time>2018-01-11T08:53:35Z</time>
      </trkpt>
      <trkpt lat="49.88809" lon="2.35084">
        <ele>31.3</ele>
        <time>2018-01-11T08:53:42Z</time>
      </trkpt>
      <trkpt lat="49.88799" lon="2.35086">
        <ele>30.6</ele>
        <time>2018-01-11T08:53:49Z</time>
      </trkpt>
      <trkpt lat="49.88791" lon="2.35092">
        <ele>28.7</ele>
        <time>2018-01-11T08:53:56Z</time>
      </trkpt>
      <trkpt lat="49.88782" lon="2.35097">
        <ele>30.9</ele>
        <time>2018-01-11T08:54:41Z</time>
      </trkpt>
      <trkpt lat="49.88777" lon="2.3511">
        <ele>33.8</ele>
        <time>2018-01-11T08:55:24Z</time>
      </trkpt>
      <trkpt lat="49.8877" lon="2.3512">
        <ele>31.5</ele>
        <time>2018-01-11T08:55:34Z</time>
      </trkpt>
      <trkpt lat="49.88761" lon="2.35125">
        <ele>31.5</ele>
        <time>2018-01-11T08:55:42Z</time>
      </trkpt>
      <trkpt lat="49.88753" lon="2.35131">
        <ele>31.4</ele>
        <time>2018-01-11T08:55:49Z</time>
      </trkpt>
      <trkpt lat="49.88744" lon="2.35139">
        <ele>30.1</ele>
        <time>2018-01-11T08:55:56Z</time>
      </trkpt>
      <trkpt lat="49.88736" lon="2.35146">
        <ele>30</ele>
        <time>2018-01-11T08:56:03Z</time>
      </trkpt>
      <trkpt lat="49.88728" lon="2.35154">
        <ele>29.9</ele>
        <time>2018-01-11T08:56:09Z</time>
      </trkpt>
      <trkpt lat="49.8872" lon="2.35162">
        <ele>30.5</ele>
        <time>2018-01-11T08:56:15Z</time>
      </trkpt>
      <trkpt lat="49.88711" lon="2.35169">
        <ele>29.5</ele>
        <time>2018-01-11T08:56:22Z</time>
      </trkpt>
      <trkpt lat="49.88702" lon="2.35176">
        <ele>30.6</ele>
        <time>2018-01-11T08:56:29Z</time>
      </trkpt>
      <trkpt lat="49.88693" lon="2.35183">
        <ele>31.3</ele>
        <time>2018-01-11T08:56:36Z</time>
      </trkpt>
      <trkpt lat="49.88684" lon="2.3519">
        <ele>31</ele>
        <time>2018-01-11T08:56:43Z</time>
      </trkpt>
      <trkpt lat="49.88675" lon="2.35193">
        <ele>30.7</ele>
        <time>2018-01-11T08:56:50Z</time>
      </trkpt>
      <trkpt lat="49.88666" lon="2.35189">
        <ele>29.4</ele>
        <time>2018-01-11T08:56:57Z</time>
      </trkpt>
      <trkpt lat="49.88659" lon="2.35179">
        <ele>28.8</ele>
        <time>2018-01-11T08:57:04Z</time>
      </trkpt>
      <trkpt lat="49.88653" lon="2.35167">
        <ele>28.8</ele>
        <time>2018-01-11T08:57:12Z</time>
      </trkpt>
      <trkpt lat="49.88647" lon="2.35154">
        <ele>26.1</ele>
        <time>2018-01-11T08:57:20Z</time>
      </trkpt>
      <trkpt lat="49.8864" lon="2.35144">
        <ele>24.9</ele>
        <time>2018-01-11T08:57:28Z</time>
      </trkpt>
      <trkpt lat="49.88634" lon="2.35134">
        <ele>26.2</ele>
        <time>2018-01-11T08:57:37Z</time>
      </trkpt>
      <trkpt lat="49.88627" lon="2.35123">
        <ele>25.4</ele>
        <time>2018-01-11T08:57:49Z</time>
      </trkpt>
      <trkpt lat="49.88621" lon="2.3511">
        <ele>25</ele>
        <time>2018-01-11T08:57:58Z</time>
      </trkpt>
      <trkpt lat="49.88616" lon="2.35097">
        <ele>25.8</ele>
        <time>2018-01-11T08:58:04Z</time>
      </trkpt>
      <trkpt lat="49.88612" lon="2.35083">
        <ele>25.7</ele>
        <time>2018-01-11T08:58:10Z</time>
      </trkpt>
      <trkpt lat="49.88608" lon="2.35071">
        <ele>25.6</ele>
        <time>2018-01-11T08:58:16Z</time>
      </trkpt>
      <trkpt lat="49.88604" lon="2.35059">
        <ele>23.9</ele>
        <time>2018-01-11T08:58:22Z</time>
      </trkpt>
      <trkpt lat="49.886" lon="2.35045">
        <ele>23.6</ele>
        <time>2018-01-11T08:58:28Z</time>
      </trkpt>
      <trkpt lat="49.88597" lon="2.35032">
        <ele>22.7</ele>
        <time>2018-01-11T08:58:34Z</time>
      </trkpt>
      <trkpt lat="49.88594" lon="2.35019">
        <ele>23.1</ele>
        <time>2018-01-11T08:58:40Z</time>
      </trkpt>
      <trkpt lat="49.88587" lon="2.35008">
        <ele>21.7</ele>
        <time>2018-01-11T08:58:47Z</time>
      </trkpt>
      <trkpt lat="49.88578" lon="2.35001">
        <ele>21.5</ele>
        <time>2018-01-11T08:58:55Z</time>
      </trkpt>
      <trkpt lat="49.88569" lon="2.35006">
        <ele>21.2</ele>
        <time>2018-01-11T08:59:04Z</time>
      </trkpt>
      <trkpt lat="49.8856" lon="2.35012">
        <ele>21.1</ele>
        <time>2018-01-11T08:59:10Z</time>
      </trkpt>
      <trkpt lat="49.88551" lon="2.35017">
        <ele>19</ele>
        <time>2018-01-11T08:59:16Z</time>
      </trkpt>
      <trkpt lat="49.88543" lon="2.35024">
        <ele>18</ele>
        <time>2018-01-11T08:59:22Z</time>
      </trkpt>
      <trkpt lat="49.88534" lon="2.35031">
        <ele>18.1</ele>
        <time>2018-01-11T08:59:29Z</time>
      </trkpt>
      <trkpt lat="49.88526" lon="2.35039">
        <ele>16.9</ele>
        <time>2018-01-11T08:59:36Z</time>
      </trkpt>
      <trkpt lat="49.88517" lon="2.35046">
        <ele>15.8</ele>
        <time>2018-01-11T08:59:43Z</time>
      </trkpt>
      <trkpt lat="49.88509" lon="2.35054">
        <ele>15.7</ele>
        <time>2018-01-11T08:59:50Z</time>
      </trkpt>
      <trkpt lat="49.88501" lon="2.35063">
        <ele>15.6</ele>
        <time>2018-01-11T08:59:57Z</time>
      </trkpt>
      <trkpt lat="49.88494" lon="2.35073">
        <ele>16.3</ele>
        <time>2018-01-11T09:00:05Z</time>
      </trkpt>
      <trkpt lat="49.88487" lon="2.35082">
        <ele>16.4</ele>
        <time>2018-01-11T09:00:11Z</time>
      </trkpt>
      <trkpt lat="49.88479" lon="2.35089">
        <ele>16.6</ele>
        <time>2018-01-11T09:00:17Z</time>
      </trkpt>
      <trkpt lat="49.8847" lon="2.35096">
        <ele>16.1</ele>
        <time>2018-01-11T09:00:23Z</time>
      </trkpt>
      <trkpt lat="49.88461" lon="2.35103">
        <ele>17.8</ele>
        <time>2018-01-11T09:00:30Z</time>
      </trkpt>
      <trkpt lat="49.88458" lon="2.35116">
        <ele>17.9</ele>
        <time>2018-01-11T09:00:38Z</time>
      </trkpt>
      <trkpt lat="49.88463" lon="2.35128">
        <ele>16.9</ele>
        <time>2018-01-11T09:00:46Z</time>
      </trkpt>
      <trkpt lat="49.88469" lon="2.35139">
        <ele>15.9</ele>
        <time>2018-01-11T09:00:53Z</time>
      </trkpt>
      <trkpt lat="49.88474" lon="2.35153">
        <ele>14.2</ele>
        <time>2018-01-11T09:01:01Z</time>
      </trkpt>
      <trkpt lat="49.88479" lon="2.35165">
        <ele>13.4</ele>
        <time>2018-01-11T09:01:10Z</time>
      </trkpt>
      <trkpt lat="49.88482" lon="2.35179">
        <ele>12.5</ele>
        <time>2018-01-11T09:01:21Z</time>
      </trkpt>
      <trkpt lat="49.88486" lon="2.35194">
        <ele>13.2</ele>
        <time>2018-01-11T09:01:28Z</time>
      </trkpt>
      <trkpt lat="49.88489" lon="2.35207">
        <ele>11.4</ele>
        <time>2018-01-11T09:01:34Z</time>
      </trkpt>
      <trkpt lat="49.88492" lon="2.35222">
        <ele>12.9</ele>
        <time>2018-01-11T09:01:41Z</time>
      </trkpt>
      <trkpt lat="49.88495" lon="2.35236">
        <ele>13.7</ele>
        <time>2018-01-11T09:01:47Z</time>
      </trkpt>
      <trkpt lat="49.88498" lon="2.35249">
        <ele>13.4</ele>
        <time>2018-01-11T09:01:53Z</time>
      </trkpt>
      <trkpt lat="49.88499" lon="2.35264">
        <ele>13.2</ele>
        <time>2018-01-11T09:02:00Z</time>
      </trkpt>
      <trkpt lat="49.88499" lon="2.3528">
        <ele>13</ele>
        <time>2018-01-11T09:02:07Z</time>
      </trkpt>
      <trkpt lat="49.88496" lon="2.35295">
        <ele>12</ele>
        <time>2018-01-11T09:02:13Z</time>
      </trkpt>
      <trkpt lat="49.88491" lon="2.35308">
        <ele>12.1</ele>
        <time>2018-01-11T09:02:19Z</time>
      </trkpt>
      <trkpt lat="49.88486" lon="2.35322">
        <ele>12.2</ele>
        <time>2018-01-11T09:02:27Z</time>
      </trkpt>
      <trkpt lat="49.88479" lon="2.35333">
        <ele>11.2</ele>
        <time>2018-01-11T09:02:34Z</time>
      </trkpt>
      <trkpt lat="49.88471" lon="2.35343">
        <ele>11.8</ele>
        <time>2018-01-11T09:02:41Z</time>
      </trkpt>
      <trkpt lat="49.88464" lon="2.35353">
        <ele>11.9</ele>
        <time>2018-01-11T09:02:49Z</time>
      </trkpt>
      <trkpt lat="49.88457" lon="2.35361">
        <ele>13.6</ele>
        <time>2018-01-11T09:02:56Z</time>
      </trkpt>
      <trkpt lat="49.88447" lon="2.35364">
        <ele>13.9</ele>
        <time>2018-01-11T09:03:03Z</time>
      </trkpt>
      <trkpt lat="49.88439" lon="2.35357">
        <ele>13.4</ele>
        <time>2018-01-11T09:03:10Z</time>
      </trkpt>
      <trkpt lat="49.88429" lon="2.35361">
        <ele>13.3</ele>
        <time>2018-01-11T09:03:17Z</time>
      </trkpt>
      <trkpt lat="49.88421" lon="2.35368">
        <ele>12.6</ele>
        <time>2018-01-11T09:03:24Z</time>
      </trkpt>
      <trkpt lat="49.88413" lon="2.35375">
        <ele>12.4</ele>
        <time>2018-01-11T09:03:30Z</time>
      </trkpt>
      <trkpt lat="49.88409" lon="2.35388">
        <ele>12.9</ele>
        <time>2018-01-11T09:03:40Z</time>
      </trkpt>
      <trkpt lat="49.88399" lon="2.35393">
        <ele>12.7</ele>
        <time>2018-01-11T09:03:47Z</time>
      </trkpt>
      <trkpt lat="49.88394" lon="2.35404">
        <ele>12.4</ele>
        <time>2018-01-11T09:03:54Z</time>
      </trkpt>
      <trkpt lat="49.88388" lon="2.35416">
        <ele>13.7</ele>
        <time>2018-01-11T09:04:02Z</time>
      </trkpt>
      <trkpt lat="49.88381" lon="2.35427">
        <ele>14.4</ele>
        <time>2018-01-11T09:04:09Z</time>
      </trkpt>
      <trkpt lat="49.88372" lon="2.35428">
        <ele>14.7</ele>
        <time>2018-01-11T09:04:15Z</time>
      </trkpt>
      <trkpt lat="49.88362" lon="2.35429">
        <ele>14.7</ele>
        <time>2018-01-11T09:04:20Z</time>
      </trkpt>
      <trkpt lat="49.88352" lon="2.35427">
        <ele>14.5</ele>
        <time>2018-01-11T09:04:26Z</time>
      </trkpt>
      <trkpt lat="49.88343" lon="2.35423">
        <ele>14.4</ele>
        <time>2018-01-11T09:04:32Z</time>
      </trkpt>
      <trkpt lat="49.88335" lon="2.35416">
        <ele>13.8</ele>
        <time>2018-01-11T09:04:38Z</time>
      </trkpt>
      <trkpt lat="49.88326" lon="2.35409">
        <ele>13.2</ele>
        <time>2018-01-11T09:04:44Z</time>
      </trkpt>
      <trkpt lat="49.88319" lon="2.35399">
        <ele>12.6</ele>
        <time>2018-01-11T09:04:51Z</time>
      </trkpt>
      <trkpt lat="49.88313" lon="2.35386">
        <ele>12</ele>
        <time>2018-01-11T09:04:58Z</time>
      </trkpt>
      <trkpt lat="49.88307" lon="2.35374">
        <ele>12.2</ele>
        <time>2018-01-11T09:05:04Z</time>
      </trkpt>
      <trkpt lat="49.88302" lon="2.35361">
        <ele>13.7</ele>
        <time>2018-01-11T09:05:10Z</time>
      </trkpt>
      <trkpt lat="49.88298" lon="2.35349">
        <ele>13.4</ele>
        <time>2018-01-11T09:05:17Z</time>
      </trkpt>
      <trkpt lat="49.88294" lon="2.35335">
        <ele>13.3</ele>
        <time>2018-01-11T09:05:23Z</time>
      </trkpt>
      <trkpt lat="49.88292" lon="2.35319">
        <ele>13.5</ele>
        <time>2018-01-11T09:05:30Z</time>
      </trkpt>
      <trkpt lat="49.883" lon="2.3531">
        <ele>11.9</ele>
        <time>2018-01-11T09:05:37Z</time>
      </trkpt>
      <trkpt lat="49.88309" lon="2.35302">
        <ele>11.9</ele>
        <time>2018-01-11T09:05:44Z</time>
      </trkpt>
      <trkpt lat="49.88319" lon="2.35297">
        <ele>13.6</ele>
        <time>2018-01-11T09:05:51Z</time>
      </trkpt>
      <trkpt lat="49.88328" lon="2.35291">
        <ele>13.3</ele>
        <time>2018-01-11T09:05:58Z</time>
      </trkpt>
      <trkpt lat="49.88337" lon="2.35285">
        <ele>12.7</ele>
        <time>2018-01-11T09:06:05Z</time>
      </trkpt>
      <trkpt lat="49.88345" lon="2.35279">
        <ele>12.2</ele>
        <time>2018-01-11T09:06:32Z</time>
      </trkpt>
      <trkpt lat="49.88355" lon="2.35281">
        <ele>12.5</ele>
        <time>2018-01-11T09:07:22Z</time>
      </trkpt>
      <trkpt lat="49.88364" lon="2.35285">
        <ele>12.8</ele>
        <time>2018-01-11T09:07:31Z</time>
      </trkpt>
      <trkpt lat="49.88372" lon="2.35289">
        <ele>12.6</ele>
        <time>2018-01-11T09:08:08Z</time>
      </trkpt>
      <trkpt lat="49.88364" lon="2.35283">
        <ele>12.5</ele>
        <time>2018-01-11T09:08:25Z</time>
      </trkpt>
      <trkpt lat="49.88354" lon="2.35278">
        <ele>12.5</ele>
        <time>2018-01-11T09:08:33Z</time>
      </trkpt>
      <trkpt lat="49.88346" lon="2.35282">
        <ele>14</ele>
        <time>2018-01-11T09:09:48Z</time>
      </trkpt>
      <trkpt lat="49.88336" lon="2.35285">
        <ele>12.2</ele>
        <time>2018-01-11T09:10:44Z</time>
      </trkpt>
      <trkpt lat="49.88343" lon="2.35275">
        <ele>11.4</ele>
        <time>2018-01-11T09:18:03Z</time>
      </trkpt>
      <trkpt lat="49.88351" lon="2.35267">
        <ele>11.3</ele>
        <time>2018-01-11T09:19:46Z</time>
      </trkpt>
      <trkpt lat="49.88356" lon="2.35255">
        <ele>11.3</ele>
        <time>2018-01-11T09:19:54Z</time>
      </trkpt>
      <trkpt lat="49.88362" lon="2.35242">
        <ele>11.6</ele>
        <time>2018-01-11T09:20:02Z</time>
      </trkpt>
      <trkpt lat="49.88368" lon="2.3523">
        <ele>11.6</ele>
        <time>2018-01-11T09:20:10Z</time>
      </trkpt>
      <trkpt lat="49.88377" lon="2.35223">
        <ele>11.3</ele>
        <time>2018-01-11T09:20:18Z</time>
      </trkpt>
      <trkpt lat="49.8838" lon="2.3521">
        <ele>10.9</ele>
        <time>2018-01-11T09:20:27Z</time>
      </trkpt>
      <trkpt lat="49.88378" lon="2.35195">
        <ele>10.9</ele>
        <time>2018-01-11T09:20:35Z</time>
      </trkpt>
      <trkpt lat="49.88382" lon="2.35183">
        <ele>11.4</ele>
        <time>2018-01-11T09:20:44Z</time>
      </trkpt>
      <trkpt lat="49.88391" lon="2.35177">
        <ele>11.5</ele>
        <time>2018-01-11T09:20:52Z</time>
      </trkpt>
      <trkpt lat="49.884" lon="2.35169">
        <ele>11.8</ele>
        <time>2018-01-11T09:21:00Z</time>
      </trkpt>
      <trkpt lat="49.88409" lon="2.35161">
        <ele>11.8</ele>
        <time>2018-01-11T09:21:07Z</time>
      </trkpt>
      <trkpt lat="49.88417" lon="2.35154">
        <ele>11.7</ele>
        <time>2018-01-11T09:21:14Z</time>
      </trkpt>
      <trkpt lat="49.88424" lon="2.35146">
        <ele>12</ele>
        <time>2018-01-11T09:21:21Z</time>
      </trkpt>
      <trkpt lat="49.88433" lon="2.35136">
        <ele>12.5</ele>
        <time>2018-01-11T09:21:28Z</time>
      </trkpt>
      <trkpt lat="49.88441" lon="2.35128">
        <ele>13.3</ele>
        <time>2018-01-11T09:21:34Z</time>
      </trkpt>
      <trkpt lat="49.88449" lon="2.3512">
        <ele>13.5</ele>
        <time>2018-01-11T09:21:41Z</time>
      </trkpt>
      <trkpt lat="49.88456" lon="2.35109">
        <ele>13.6</ele>
        <time>2018-01-11T09:21:49Z</time>
      </trkpt>
      <trkpt lat="49.88464" lon="2.35101">
        <ele>14.1</ele>
        <time>2018-01-11T09:21:57Z</time>
      </trkpt>
      <trkpt lat="49.88472" lon="2.35093">
        <ele>14.9</ele>
        <time>2018-01-11T09:22:04Z</time>
      </trkpt>
      <trkpt lat="49.88481" lon="2.35086">
        <ele>16.1</ele>
        <time>2018-01-11T09:22:11Z</time>
      </trkpt>
      <trkpt lat="49.88488" lon="2.35076">
        <ele>15.9</ele>
        <time>2018-01-11T09:22:18Z</time>
      </trkpt>
      <trkpt lat="49.88484" lon="2.35063">
        <ele>15.5</ele>
        <time>2018-01-11T09:22:25Z</time>
      </trkpt>
      <trkpt lat="49.88479" lon="2.35051">
        <ele>14.8</ele>
        <time>2018-01-11T09:22:32Z</time>
      </trkpt>
      <trkpt lat="49.88474" lon="2.35037">
        <ele>14.1</ele>
        <time>2018-01-11T09:22:39Z</time>
      </trkpt>
      <trkpt lat="49.8847" lon="2.35023">
        <ele>13.2</ele>
        <time>2018-01-11T09:22:47Z</time>
      </trkpt>
      <trkpt lat="49.88466" lon="2.35009">
        <ele>12.6</ele>
        <time>2018-01-11T09:22:55Z</time>
      </trkpt>
      <trkpt lat="49.88463" lon="2.34995">
        <ele>12</ele>
        <time>2018-01-11T09:23:02Z</time>
      </trkpt>
      <trkpt lat="49.88459" lon="2.34981">
        <ele>11.9</ele>
        <time>2018-01-11T09:23:09Z</time>
      </trkpt>
      <trkpt lat="49.88455" lon="2.34968">
        <ele>11.8</ele>
        <time>2018-01-11T09:23:15Z</time>
      </trkpt>
      <trkpt lat="49.88452" lon="2.34955">
        <ele>11.8</ele>
        <time>2018-01-11T09:23:21Z</time>
      </trkpt>
      <trkpt lat="49.88448" lon="2.3494">
        <ele>11.8</ele>
        <time>2018-01-11T09:23:28Z</time>
      </trkpt>
      <trkpt lat="49.88443" lon="2.34928">
        <ele>11.9</ele>
        <time>2018-01-11T09:23:34Z</time>
      </trkpt>
      <trkpt lat="49.88437" lon="2.34915">
        <ele>12.1</ele>
        <time>2018-01-11T09:23:41Z</time>
      </trkpt>
      <trkpt lat="49.88432" lon="2.34903">
        <ele>12</ele>
        <time>2018-01-11T09:23:47Z</time>
      </trkpt>
      <trkpt lat="49.88424" lon="2.34892">
        <ele>11.8</ele>
        <time>2018-01-11T09:23:53Z</time>
      </trkpt>
      <trkpt lat="49.88417" lon="2.34884">
        <ele>12.1</ele>
        <time>2018-01-11T09:23:59Z</time>
      </trkpt>
      <trkpt lat="49.88409" lon="2.34874">
        <ele>11.8</ele>
        <time>2018-01-11T09:24:06Z</time>
      </trkpt>
      <trkpt lat="49.88402" lon="2.34865">
        <ele>12.3</ele>
        <time>2018-01-11T09:24:13Z</time>
      </trkpt>
      <trkpt lat="49.88395" lon="2.34857">
        <ele>12.4</ele>
        <time>2018-01-11T09:24:20Z</time>
      </trkpt>
      <trkpt lat="49.88385" lon="2.34852">
        <ele>12.2</ele>
        <time>2018-01-11T09:24:26Z</time>
      </trkpt>
      <trkpt lat="49.88376" lon="2.34847">
        <ele>11.8</ele>
        <time>2018-01-11T09:24:32Z</time>
      </trkpt>
      <trkpt lat="49.88368" lon="2.34841">
        <ele>11.6</ele>
        <time>2018-01-11T09:24:38Z</time>
      </trkpt>
      <trkpt lat="49.88361" lon="2.34831">
        <ele>11.3</ele>
        <time>2018-01-11T09:24:45Z</time>
      </trkpt>
      <trkpt lat="49.88353" lon="2.34821">
        <ele>11.5</ele>
        <time>2018-01-11T09:24:52Z</time>
      </trkpt>
      <trkpt lat="49.88346" lon="2.34811">
        <ele>11.4</ele>
        <time>2018-01-11T09:24:59Z</time>
      </trkpt>
      <trkpt lat="49.8834" lon="2.34799">
        <ele>11.3</ele>
        <time>2018-01-11T09:25:06Z</time>
      </trkpt>
      <trkpt lat="49.88334" lon="2.34787">
        <ele>11.7</ele>
        <time>2018-01-11T09:25:13Z</time>
      </trkpt>
      <trkpt lat="49.88327" lon="2.34777">
        <ele>11.6</ele>
        <time>2018-01-11T09:25:19Z</time>
      </trkpt>
      <trkpt lat="49.88321" lon="2.34764">
        <ele>11.5</ele>
        <time>2018-01-11T09:25:26Z</time>
      </trkpt>
      <trkpt lat="49.88316" lon="2.34752">
        <ele>11.8</ele>
        <time>2018-01-11T09:25:33Z</time>
      </trkpt>
      <trkpt lat="49.88314" lon="2.34738">
        <ele>11.6</ele>
        <time>2018-01-11T09:25:40Z</time>
      </trkpt>
      <trkpt lat="49.88313" lon="2.34722">
        <ele>11.6</ele>
        <time>2018-01-11T09:25:47Z</time>
      </trkpt>
      <trkpt lat="49.88313" lon="2.34707">
        <ele>11.6</ele>
        <time>2018-01-11T09:25:54Z</time>
      </trkpt>
      <trkpt lat="49.88312" lon="2.34692">
        <ele>11.8</ele>
        <time>2018-01-11T09:26:00Z</time>
      </trkpt>
      <trkpt lat="49.88309" lon="2.34678">
        <ele>12</ele>
        <time>2018-01-11T09:26:06Z</time>
      </trkpt>
      <trkpt lat="49.88305" lon="2.34665">
        <ele>11.3</ele>
        <time>2018-01-11T09:26:12Z</time>
      </trkpt>
      <trkpt lat="49.88301" lon="2.34652">
        <ele>11.2</ele>
        <time>2018-01-11T09:26:18Z</time>
      </trkpt>
      <trkpt lat="49.88297" lon="2.34639">
        <ele>11.9</ele>
        <time>2018-01-11T09:26:24Z</time>
      </trkpt>
      <trkpt lat="49.88293" lon="2.34626">
        <ele>11.8</ele>
        <time>2018-01-11T09:26:30Z</time>
      </trkpt>
      <trkpt lat="49.88289" lon="2.34613">
        <ele>11.5</ele>
        <time>2018-01-11T09:26:36Z</time>
      </trkpt>
      <trkpt lat="49.88286" lon="2.346">
        <ele>11.6</ele>
        <time>2018-01-11T09:26:43Z</time>
      </trkpt>
      <trkpt lat="49.88283" lon="2.34585">
        <ele>11.4</ele>
        <time>2018-01-11T09:26:50Z</time>
      </trkpt>
      <trkpt lat="49.88283" lon="2.34571">
        <ele>11.4</ele>
        <time>2018-01-11T09:26:57Z</time>
      </trkpt>
      <trkpt lat="49.88284" lon="2.34556">
        <ele>11.5</ele>
        <time>2018-01-11T09:27:03Z</time>
      </trkpt>
      <trkpt lat="49.88285" lon="2.34542">
        <ele>9.6</ele>
        <time>2018-01-11T09:27:09Z</time>
      </trkpt>
      <trkpt lat="49.88285" lon="2.34527">
        <ele>11.3</ele>
        <time>2018-01-11T09:27:15Z</time>
      </trkpt>
      <trkpt lat="49.88285" lon="2.34512">
        <ele>11.1</ele>
        <time>2018-01-11T09:27:21Z</time>
      </trkpt>
      <trkpt lat="49.88286" lon="2.34497">
        <ele>11.5</ele>
        <time>2018-01-11T09:27:28Z</time>
      </trkpt>
      <trkpt lat="49.88287" lon="2.34482">
        <ele>11.6</ele>
        <time>2018-01-11T09:27:35Z</time>
      </trkpt>
      <trkpt lat="49.88288" lon="2.34465">
        <ele>11.1</ele>
        <time>2018-01-11T09:27:42Z</time>
      </trkpt>
      <trkpt lat="49.88289" lon="2.34449">
        <ele>11</ele>
        <time>2018-01-11T09:27:49Z</time>
      </trkpt>
      <trkpt lat="49.8829" lon="2.34435">
        <ele>11</ele>
        <time>2018-01-11T09:27:55Z</time>
      </trkpt>
      <trkpt lat="49.88292" lon="2.3442">
        <ele>10.7</ele>
        <time>2018-01-11T09:28:01Z</time>
      </trkpt>
      <trkpt lat="49.88293" lon="2.34405">
        <ele>10.6</ele>
        <time>2018-01-11T09:28:08Z</time>
      </trkpt>
      <trkpt lat="49.88296" lon="2.3439">
        <ele>10.9</ele>
        <time>2018-01-11T09:28:15Z</time>
      </trkpt>
      <trkpt lat="49.88297" lon="2.34374">
        <ele>10.3</ele>
        <time>2018-01-11T09:28:22Z</time>
      </trkpt>
      <trkpt lat="49.88297" lon="2.34358">
        <ele>11.1</ele>
        <time>2018-01-11T09:28:29Z</time>
      </trkpt>
      <trkpt lat="49.88301" lon="2.34344">
        <ele>10.8</ele>
        <time>2018-01-11T09:28:37Z</time>
      </trkpt>
      <trkpt lat="49.88304" lon="2.3433">
        <ele>10.7</ele>
        <time>2018-01-11T09:28:45Z</time>
      </trkpt>
      <trkpt lat="49.88307" lon="2.34314">
        <ele>11.5</ele>
        <time>2018-01-11T09:28:51Z</time>
      </trkpt>
      <trkpt lat="49.88309" lon="2.34299">
        <ele>11.2</ele>
        <time>2018-01-11T09:28:58Z</time>
      </trkpt>
      <trkpt lat="49.88311" lon="2.34285">
        <ele>11.3</ele>
        <time>2018-01-11T09:29:04Z</time>
      </trkpt>
      <trkpt lat="49.88315" lon="2.34272">
        <ele>11.5</ele>
        <time>2018-01-11T09:29:10Z</time>
      </trkpt>
      <trkpt lat="49.88318" lon="2.34258">
        <ele>11.6</ele>
        <time>2018-01-11T09:29:16Z</time>
      </trkpt>
      <trkpt lat="49.8832" lon="2.34243">
        <ele>10.2</ele>
        <time>2018-01-11T09:29:23Z</time>
      </trkpt>
      <trkpt lat="49.88322" lon="2.34228">
        <ele>10.4</ele>
        <time>2018-01-11T09:29:29Z</time>
      </trkpt>
      <trkpt lat="49.88326" lon="2.34215">
        <ele>10.9</ele>
        <time>2018-01-11T09:29:35Z</time>
      </trkpt>
      <trkpt lat="49.8833" lon="2.34202">
        <ele>11.3</ele>
        <time>2018-01-11T09:29:41Z</time>
      </trkpt>
      <trkpt lat="49.88332" lon="2.34187">
        <ele>11.6</ele>
        <time>2018-01-11T09:29:47Z</time>
      </trkpt>
      <trkpt lat="49.88334" lon="2.34173">
        <ele>9.9</ele>
        <time>2018-01-11T09:29:53Z</time>
      </trkpt>
      <trkpt lat="49.88338" lon="2.3416">
        <ele>11.2</ele>
        <time>2018-01-11T09:29:59Z</time>
      </trkpt>
      <trkpt lat="49.88341" lon="2.34147">
        <ele>11.5</ele>
        <time>2018-01-11T09:30:05Z</time>
      </trkpt>
      <trkpt lat="49.88344" lon="2.34134">
        <ele>11.3</ele>
        <time>2018-01-11T09:30:11Z</time>
      </trkpt>
      <trkpt lat="49.88346" lon="2.34119">
        <ele>11</ele>
        <time>2018-01-11T09:30:17Z</time>
      </trkpt>
      <trkpt lat="49.88349" lon="2.34105">
        <ele>10.4</ele>
        <time>2018-01-11T09:30:23Z</time>
      </trkpt>
      <trkpt lat="49.88352" lon="2.3409">
        <ele>10.8</ele>
        <time>2018-01-11T09:30:30Z</time>
      </trkpt>
      <trkpt lat="49.88357" lon="2.34076">
        <ele>11.5</ele>
        <time>2018-01-11T09:30:37Z</time>
      </trkpt>
      <trkpt lat="49.88361" lon="2.34062">
        <ele>11.4</ele>
        <time>2018-01-11T09:30:44Z</time>
      </trkpt>
      <trkpt lat="49.88365" lon="2.34048">
        <ele>11.4</ele>
        <time>2018-01-11T09:30:51Z</time>
      </trkpt>
      <trkpt lat="49.88369" lon="2.34033">
        <ele>10.7</ele>
        <time>2018-01-11T09:30:57Z</time>
      </trkpt>
      <trkpt lat="49.88372" lon="2.3402">
        <ele>10.3</ele>
        <time>2018-01-11T09:31:03Z</time>
      </trkpt>
      <trkpt lat="49.88376" lon="2.34007">
        <ele>9.4</ele>
        <time>2018-01-11T09:31:09Z</time>
      </trkpt>
      <trkpt lat="49.88383" lon="2.33997">
        <ele>9.8</ele>
        <time>2018-01-11T09:31:15Z</time>
      </trkpt>
      <trkpt lat="49.8839" lon="2.33987">
        <ele>10.9</ele>
        <time>2018-01-11T09:31:21Z</time>
      </trkpt>
      <trkpt lat="49.88398" lon="2.33978">
        <ele>11</ele>
        <time>2018-01-11T09:31:28Z</time>
      </trkpt>
      <trkpt lat="49.88405" lon="2.33968">
        <ele>10.7</ele>
        <time>2018-01-11T09:31:34Z</time>
      </trkpt>
      <trkpt lat="49.88412" lon="2.33959">
        <ele>10.4</ele>
        <time>2018-01-11T09:31:40Z</time>
      </trkpt>
      <trkpt lat="49.8842" lon="2.3395">
        <ele>9.7</ele>
        <time>2018-01-11T09:31:46Z</time>
      </trkpt>
      <trkpt lat="49.88427" lon="2.33942">
        <ele>10.6</ele>
        <time>2018-01-11T09:31:52Z</time>
      </trkpt>
      <trkpt lat="49.88435" lon="2.33932">
        <ele>10.5</ele>
        <time>2018-01-11T09:31:59Z</time>
      </trkpt>
      <trkpt lat="49.88443" lon="2.33921">
        <ele>9.7</ele>
        <time>2018-01-11T09:32:06Z</time>
      </trkpt>
      <trkpt lat="49.88451" lon="2.33913">
        <ele>9.5</ele>
        <time>2018-01-11T09:32:12Z</time>
      </trkpt>
      <trkpt lat="49.88458" lon="2.33903">
        <ele>10.3</ele>
        <time>2018-01-11T09:32:18Z</time>
      </trkpt>
      <trkpt lat="49.88467" lon="2.33894">
        <ele>10.4</ele>
        <time>2018-01-11T09:32:25Z</time>
      </trkpt>
      <trkpt lat="49.88474" lon="2.33883">
        <ele>9.8</ele>
        <time>2018-01-11T09:32:31Z</time>
      </trkpt>
      <trkpt lat="49.88481" lon="2.33873">
        <ele>10.6</ele>
        <time>2018-01-11T09:32:37Z</time>
      </trkpt>
      <trkpt lat="49.88488" lon="2.33863">
        <ele>10.8</ele>
        <time>2018-01-11T09:32:43Z</time>
      </trkpt>
      <trkpt lat="49.88495" lon="2.33852">
        <ele>10.5</ele>
        <time>2018-01-11T09:32:50Z</time>
      </trkpt>
      <trkpt lat="49.88501" lon="2.33842">
        <ele>10.6</ele>
        <time>2018-01-11T09:32:56Z</time>
      </trkpt>
      <trkpt lat="49.88508" lon="2.33831">
        <ele>10.3</ele>
        <time>2018-01-11T09:33:02Z</time>
      </trkpt>
      <trkpt lat="49.88516" lon="2.33821">
        <ele>10</ele>
        <time>2018-01-11T09:33:08Z</time>
      </trkpt>
      <trkpt lat="49.88524" lon="2.33811">
        <ele>9.9</ele>
        <time>2018-01-11T09:33:15Z</time>
      </trkpt>
      <trkpt lat="49.88532" lon="2.33805">
        <ele>10.4</ele>
        <time>2018-01-11T09:33:21Z</time>
      </trkpt>
      <trkpt lat="49.8854" lon="2.33799">
        <ele>10.6</ele>
        <time>2018-01-11T09:33:27Z</time>
      </trkpt>
      <trkpt lat="49.88549" lon="2.33792">
        <ele>10.5</ele>
        <time>2018-01-11T09:33:33Z</time>
      </trkpt>
      <trkpt lat="49.88557" lon="2.33783">
        <ele>9.2</ele>
        <time>2018-01-11T09:33:39Z</time>
      </trkpt>
      <trkpt lat="49.88566" lon="2.33777">
        <ele>9.7</ele>
        <time>2018-01-11T09:33:45Z</time>
      </trkpt>
      <trkpt lat="49.88576" lon="2.3377">
        <ele>10.6</ele>
        <time>2018-01-11T09:33:51Z</time>
      </trkpt>
      <trkpt lat="49.88584" lon="2.33763">
        <ele>9.5</ele>
        <time>2018-01-11T09:33:56Z</time>
      </trkpt>
      <trkpt lat="49.88592" lon="2.33757">
        <ele>10.3</ele>
        <time>2018-01-11T09:34:02Z</time>
      </trkpt>
      <trkpt lat="49.88602" lon="2.33751">
        <ele>10.5</ele>
        <time>2018-01-11T09:34:09Z</time>
      </trkpt>
      <trkpt lat="49.88611" lon="2.33744">
        <ele>10.3</ele>
        <time>2018-01-11T09:34:15Z</time>
      </trkpt>
      <trkpt lat="49.8862" lon="2.33738">
        <ele>10.3</ele>
        <time>2018-01-11T09:34:21Z</time>
      </trkpt>
      <trkpt lat="49.88629" lon="2.33731">
        <ele>10.3</ele>
        <time>2018-01-11T09:34:27Z</time>
      </trkpt>
      <trkpt lat="49.88637" lon="2.33724">
        <ele>9.4</ele>
        <time>2018-01-11T09:34:33Z</time>
      </trkpt>
      <trkpt lat="49.88645" lon="2.33715">
        <ele>10.2</ele>
        <time>2018-01-11T09:34:40Z</time>
      </trkpt>
      <trkpt lat="49.88653" lon="2.33706">
        <ele>8</ele>
        <time>2018-01-11T09:34:46Z</time>
      </trkpt>
      <trkpt lat="49.88662" lon="2.33698">
        <ele>10.1</ele>
        <time>2018-01-11T09:34:53Z</time>
      </trkpt>
      <trkpt lat="49.88669" lon="2.33688">
        <ele>10.3</ele>
        <time>2018-01-11T09:34:59Z</time>
      </trkpt>
      <trkpt lat="49.88677" lon="2.3368">
        <ele>9.7</ele>
        <time>2018-01-11T09:35:05Z</time>
      </trkpt>
      <trkpt lat="49.88685" lon="2.3367">
        <ele>10.5</ele>
        <time>2018-01-11T09:35:11Z</time>
      </trkpt>
      <trkpt lat="49.88692" lon="2.33662">
        <ele>10.2</ele>
        <time>2018-01-11T09:35:17Z</time>
      </trkpt>
      <trkpt lat="49.887" lon="2.33653">
        <ele>9.7</ele>
        <time>2018-01-11T09:35:23Z</time>
      </trkpt>
      <trkpt lat="49.88708" lon="2.33647">
        <ele>10.7</ele>
        <time>2018-01-11T09:35:29Z</time>
      </trkpt>
      <trkpt lat="49.88715" lon="2.33638">
        <ele>11</ele>
        <time>2018-01-11T09:35:35Z</time>
      </trkpt>
      <trkpt lat="49.88723" lon="2.33627">
        <ele>10.8</ele>
        <time>2018-01-11T09:35:42Z</time>
      </trkpt>
      <trkpt lat="49.88729" lon="2.33615">
        <ele>10.2</ele>
        <time>2018-01-11T09:35:47Z</time>
      </trkpt>
      <trkpt lat="49.88736" lon="2.33605">
        <ele>10.4</ele>
        <time>2018-01-11T09:35:53Z</time>
      </trkpt>
      <trkpt lat="49.88744" lon="2.33598">
        <ele>10.7</ele>
        <time>2018-01-11T09:35:59Z</time>
      </trkpt>
      <trkpt lat="49.8875" lon="2.3361">
        <ele>11.3</ele>
        <time>2018-01-11T09:36:13Z</time>
      </trkpt>
      <trkpt lat="49.88754" lon="2.33623">
        <ele>11.8</ele>
        <time>2018-01-11T09:36:18Z</time>
      </trkpt>
      <trkpt lat="49.88759" lon="2.33636">
        <ele>11.7</ele>
        <time>2018-01-11T09:36:23Z</time>
      </trkpt>
      <trkpt lat="49.88764" lon="2.33651">
        <ele>12</ele>
        <time>2018-01-11T09:36:29Z</time>
      </trkpt>
      <trkpt lat="49.88764" lon="2.33665">
        <ele>11.6</ele>
        <time>2018-01-11T09:36:35Z</time>
      </trkpt>
      <trkpt lat="49.88766" lon="2.3368">
        <ele>11.8</ele>
        <time>2018-01-11T09:36:41Z</time>
      </trkpt>
      <trkpt lat="49.88768" lon="2.33695">
        <ele>11.8</ele>
        <time>2018-01-11T09:36:47Z</time>
      </trkpt>
      <trkpt lat="49.88765" lon="2.33708">
        <ele>11.1</ele>
        <time>2018-01-11T09:37:02Z</time>
      </trkpt>
      <trkpt lat="49.88759" lon="2.3372">
        <ele>9.8</ele>
        <time>2018-01-11T09:38:23Z</time>
      </trkpt>
      <trkpt lat="49.88755" lon="2.33735">
        <ele>9.6</ele>
        <time>2018-01-11T09:38:30Z</time>
      </trkpt>
      <trkpt lat="49.88752" lon="2.33749">
        <ele>9.1</ele>
        <time>2018-01-11T09:38:36Z</time>
      </trkpt>
      <trkpt lat="49.88749" lon="2.33764">
        <ele>8.8</ele>
        <time>2018-01-11T09:38:43Z</time>
      </trkpt>
      <trkpt lat="49.8875" lon="2.33778">
        <ele>9</ele>
        <time>2018-01-11T09:38:49Z</time>
      </trkpt>
      <trkpt lat="49.88747" lon="2.33793">
        <ele>9.5</ele>
        <time>2018-01-11T09:38:57Z</time>
      </trkpt>
      <trkpt lat="49.88743" lon="2.33806">
        <ele>9.7</ele>
        <time>2018-01-11T09:39:03Z</time>
      </trkpt>
      <trkpt lat="49.88738" lon="2.3382">
        <ele>9.9</ele>
        <time>2018-01-11T09:39:10Z</time>
      </trkpt>
      <trkpt lat="49.88735" lon="2.33835">
        <ele>8.8</ele>
        <time>2018-01-11T09:39:17Z</time>
      </trkpt>
      <trkpt lat="49.88731" lon="2.33849">
        <ele>9.7</ele>
        <time>2018-01-11T09:39:24Z</time>
      </trkpt>
      <trkpt lat="49.88729" lon="2.33863">
        <ele>10</ele>
        <time>2018-01-11T09:39:30Z</time>
      </trkpt>
      <trkpt lat="49.88724" lon="2.33876">
        <ele>10.1</ele>
        <time>2018-01-11T09:39:37Z</time>
      </trkpt>
      <trkpt lat="49.88719" lon="2.33891">
        <ele>10.1</ele>
        <time>2018-01-11T09:39:44Z</time>
      </trkpt>
      <trkpt lat="49.88714" lon="2.33905">
        <ele>10.1</ele>
        <time>2018-01-11T09:39:51Z</time>
      </trkpt>
      <trkpt lat="49.8871" lon="2.33919">
        <ele>10.2</ele>
        <time>2018-01-11T09:39:58Z</time>
      </trkpt>
      <trkpt lat="49.88704" lon="2.33933">
        <ele>10.1</ele>
        <time>2018-01-11T09:40:06Z</time>
      </trkpt>
      <trkpt lat="49.88699" lon="2.33945">
        <ele>10</ele>
        <time>2018-01-11T09:40:12Z</time>
      </trkpt>
      <trkpt lat="49.88695" lon="2.33958">
        <ele>10.1</ele>
        <time>2018-01-11T09:40:18Z</time>
      </trkpt>
      <trkpt lat="49.88689" lon="2.33969">
        <ele>9.6</ele>
        <time>2018-01-11T09:40:24Z</time>
      </trkpt>
      <trkpt lat="49.88682" lon="2.33981">
        <ele>9.4</ele>
        <time>2018-01-11T09:40:30Z</time>
      </trkpt>
      <trkpt lat="49.88676" lon="2.33991">
        <ele>9.6</ele>
        <time>2018-01-11T09:40:36Z</time>
      </trkpt>
      <trkpt lat="49.88671" lon="2.34004">
        <ele>9.7</ele>
        <time>2018-01-11T09:40:44Z</time>
      </trkpt>
      <trkpt lat="49.88664" lon="2.34015">
        <ele>9.9</ele>
        <time>2018-01-11T09:40:51Z</time>
      </trkpt>
      <trkpt lat="49.88659" lon="2.34029">
        <ele>10</ele>
        <time>2018-01-11T09:40:58Z</time>
      </trkpt>
      <trkpt lat="49.88654" lon="2.34042">
        <ele>10</ele>
        <time>2018-01-11T09:41:05Z</time>
      </trkpt>
      <trkpt lat="49.88654" lon="2.34058">
        <ele>10</ele>
        <time>2018-01-11T09:41:11Z</time>
      </trkpt>
      <trkpt lat="49.88653" lon="2.34072">
        <ele>10.2</ele>
        <time>2018-01-11T09:41:17Z</time>
      </trkpt>
      <trkpt lat="49.88652" lon="2.34088">
        <ele>9.9</ele>
        <time>2018-01-11T09:41:23Z</time>
      </trkpt>
      <trkpt lat="49.88656" lon="2.34102">
        <ele>9.6</ele>
        <time>2018-01-11T09:41:29Z</time>
      </trkpt>
      <trkpt lat="49.88653" lon="2.34116">
        <ele>10</ele>
        <time>2018-01-11T09:41:35Z</time>
      </trkpt>
      <trkpt lat="49.88652" lon="2.34131">
        <ele>10.4</ele>
        <time>2018-01-11T09:41:42Z</time>
      </trkpt>
      <trkpt lat="49.88654" lon="2.34146">
        <ele>10.2</ele>
        <time>2018-01-11T09:41:49Z</time>
      </trkpt>
      <trkpt lat="49.88654" lon="2.34161">
        <ele>10.5</ele>
        <time>2018-01-11T09:41:58Z</time>
      </trkpt>
      <trkpt lat="49.8866" lon="2.34173">
        <ele>10.7</ele>
        <time>2018-01-11T09:42:06Z</time>
      </trkpt>
      <trkpt lat="49.88664" lon="2.34186">
        <ele>10.9</ele>
        <time>2018-01-11T09:42:14Z</time>
      </trkpt>
      <trkpt lat="49.88673" lon="2.34193">
        <ele>10.8</ele>
        <time>2018-01-11T09:42:21Z</time>
      </trkpt>
      <trkpt lat="49.88682" lon="2.342">
        <ele>10.7</ele>
        <time>2018-01-11T09:42:36Z</time>
      </trkpt>
      <trkpt lat="49.88691" lon="2.34201">
        <ele>10.4</ele>
        <time>2018-01-11T09:42:51Z</time>
      </trkpt>
      <trkpt lat="49.88698" lon="2.3421">
        <ele>10.1</ele>
        <time>2018-01-11T09:43:00Z</time>
      </trkpt>
      <trkpt lat="49.88702" lon="2.34223">
        <ele>10.3</ele>
        <time>2018-01-11T09:43:08Z</time>
      </trkpt>
      <trkpt lat="49.88707" lon="2.34235">
        <ele>10.4</ele>
        <time>2018-01-11T09:43:15Z</time>
      </trkpt>
      <trkpt lat="49.88713" lon="2.34249">
        <ele>10.4</ele>
        <time>2018-01-11T09:43:23Z</time>
      </trkpt>
      <trkpt lat="49.88719" lon="2.34261">
        <ele>10.6</ele>
        <time>2018-01-11T09:43:31Z</time>
      </trkpt>
      <trkpt lat="49.88724" lon="2.34273">
        <ele>11.1</ele>
        <time>2018-01-11T09:43:38Z</time>
      </trkpt>
      <trkpt lat="49.88726" lon="2.34288">
        <ele>11.4</ele>
        <time>2018-01-11T09:43:44Z</time>
      </trkpt>
      <trkpt lat="49.88729" lon="2.34304">
        <ele>11.8</ele>
        <time>2018-01-11T09:43:51Z</time>
      </trkpt>
      <trkpt lat="49.88732" lon="2.34318">
        <ele>12.6</ele>
        <time>2018-01-11T09:43:58Z</time>
      </trkpt>
      <trkpt lat="49.88737" lon="2.3433">
        <ele>13</ele>
        <time>2018-01-11T09:44:06Z</time>
      </trkpt>
      <trkpt lat="49.88744" lon="2.3434">
        <ele>13.2</ele>
        <time>2018-01-11T09:44:18Z</time>
      </trkpt>
      <trkpt lat="49.88752" lon="2.34335">
        <ele>13.9</ele>
        <time>2018-01-11T09:44:27Z</time>
      </trkpt>
      <trkpt lat="49.88762" lon="2.34336">
        <ele>13.8</ele>
        <time>2018-01-11T09:44:31Z</time>
      </trkpt>
      <trkpt lat="49.88769" lon="2.34344">
        <ele>13</ele>
        <time>2018-01-11T09:44:38Z</time>
      </trkpt>
      <trkpt lat="49.88777" lon="2.34353">
        <ele>13.9</ele>
        <time>2018-01-11T09:44:45Z</time>
      </trkpt>
      <trkpt lat="49.88784" lon="2.34366">
        <ele>14.2</ele>
        <time>2018-01-11T09:44:52Z</time>
      </trkpt>
      <trkpt lat="49.88789" lon="2.34379">
        <ele>14.4</ele>
        <time>2018-01-11T09:44:58Z</time>
      </trkpt>
      <trkpt lat="49.88795" lon="2.34391">
        <ele>14.5</ele>
        <time>2018-01-11T09:45:04Z</time>
      </trkpt>
      <trkpt lat="49.88796" lon="2.34407">
        <ele>14.3</ele>
        <time>2018-01-11T09:45:11Z</time>
      </trkpt>
      <trkpt lat="49.88801" lon="2.34419">
        <ele>13.4</ele>
        <time>2018-01-11T09:45:21Z</time>
      </trkpt>
      <trkpt lat="49.88808" lon="2.3443">
        <ele>14.7</ele>
        <time>2018-01-11T09:45:28Z</time>
      </trkpt>
      <trkpt lat="49.88805" lon="2.34443">
        <ele>15.7</ele>
        <time>2018-01-11T09:45:36Z</time>
      </trkpt>
      <trkpt lat="49.88796" lon="2.34452">
        <ele>16.3</ele>
        <time>2018-01-11T09:45:43Z</time>
      </trkpt>
      <trkpt lat="49.88787" lon="2.3446">
        <ele>16.8</ele>
        <time>2018-01-11T09:45:49Z</time>
      </trkpt>
      <trkpt lat="49.8878" lon="2.34469">
        <ele>16.7</ele>
        <time>2018-01-11T09:45:55Z</time>
      </trkpt>
      <trkpt lat="49.88772" lon="2.34476">
        <ele>16.4</ele>
        <time>2018-01-11T09:46:01Z</time>
      </trkpt>
      <trkpt lat="49.88774" lon="2.34491">
        <ele>15.6</ele>
        <time>2018-01-11T09:46:11Z</time>
      </trkpt>
      <trkpt lat="49.88778" lon="2.34504">
        <ele>15.5</ele>
        <time>2018-01-11T09:46:18Z</time>
      </trkpt>
      <trkpt lat="49.88783" lon="2.34517">
        <ele>14.8</ele>
        <time>2018-01-11T09:46:25Z</time>
      </trkpt>
      <trkpt lat="49.88789" lon="2.34529">
        <ele>14.8</ele>
        <time>2018-01-11T09:46:32Z</time>
      </trkpt>
      <trkpt lat="49.88798" lon="2.34525">
        <ele>15</ele>
        <time>2018-01-11T09:46:41Z</time>
      </trkpt>
      <trkpt lat="49.88806" lon="2.34517">
        <ele>15.8</ele>
        <time>2018-01-11T09:46:50Z</time>
      </trkpt>
      <trkpt lat="49.88815" lon="2.34511">
        <ele>16.5</ele>
        <time>2018-01-11T09:46:58Z</time>
      </trkpt>
      <trkpt lat="49.88824" lon="2.34504">
        <ele>16.9</ele>
        <time>2018-01-11T09:47:07Z</time>
      </trkpt>
      <trkpt lat="49.88832" lon="2.34497">
        <ele>17</ele>
        <time>2018-01-11T09:47:14Z</time>
      </trkpt>
      <trkpt lat="49.88841" lon="2.3449">
        <ele>17</ele>
        <time>2018-01-11T09:47:21Z</time>
      </trkpt>
      <trkpt lat="49.8885" lon="2.34483">
        <ele>17.7</ele>
        <time>2018-01-11T09:47:28Z</time>
      </trkpt>
      <trkpt lat="49.88859" lon="2.34477">
        <ele>17.8</ele>
        <time>2018-01-11T09:47:34Z</time>
      </trkpt>
      <trkpt lat="49.88867" lon="2.34469">
        <ele>17.8</ele>
        <time>2018-01-11T09:47:44Z</time>
      </trkpt>
      <trkpt lat="49.88876" lon="2.34466">
        <ele>17.5</ele>
        <time>2018-01-11T09:47:50Z</time>
      </trkpt>
      <trkpt lat="49.88886" lon="2.34461">
        <ele>17.4</ele>
        <time>2018-01-11T09:47:56Z</time>
      </trkpt>
      <trkpt lat="49.88895" lon="2.34455">
        <ele>16.8</ele>
        <time>2018-01-11T09:48:01Z</time>
      </trkpt>
      <trkpt lat="49.88903" lon="2.34449">
        <ele>15.9</ele>
        <time>2018-01-11T09:48:06Z</time>
      </trkpt>
      <trkpt lat="49.88911" lon="2.3444">
        <ele>14.8</ele>
        <time>2018-01-11T09:48:13Z</time>
      </trkpt>
      <trkpt lat="49.88919" lon="2.34432">
        <ele>14</ele>
        <time>2018-01-11T09:48:22Z</time>
      </trkpt>
      <trkpt lat="49.88925" lon="2.34421">
        <ele>13.4</ele>
        <time>2018-01-11T09:48:34Z</time>
      </trkpt>
      <trkpt lat="49.88934" lon="2.34415">
        <ele>13.7</ele>
        <time>2018-01-11T09:48:40Z</time>
      </trkpt>
      <trkpt lat="49.8894" lon="2.34405">
        <ele>14.1</ele>
        <time>2018-01-11T09:48:46Z</time>
      </trkpt>
      <trkpt lat="49.88949" lon="2.34397">
        <ele>14.9</ele>
        <time>2018-01-11T09:48:52Z</time>
      </trkpt>
      <trkpt lat="49.88957" lon="2.34387">
        <ele>15.5</ele>
        <time>2018-01-11T09:48:59Z</time>
      </trkpt>
      <trkpt lat="49.88964" lon="2.34374">
        <ele>16.1</ele>
        <time>2018-01-11T09:49:06Z</time>
      </trkpt>
      <trkpt lat="49.88969" lon="2.34361">
        <ele>16.5</ele>
        <time>2018-01-11T09:49:13Z</time>
      </trkpt>
      <trkpt lat="49.88971" lon="2.34348">
        <ele>15.8</ele>
        <time>2018-01-11T09:49:19Z</time>
      </trkpt>
      <trkpt lat="49.88975" lon="2.34334">
        <ele>15.4</ele>
        <time>2018-01-11T09:49:25Z</time>
      </trkpt>
      <trkpt lat="49.8898" lon="2.34321">
        <ele>15.3</ele>
        <time>2018-01-11T09:49:31Z</time>
      </trkpt>
      <trkpt lat="49.88986" lon="2.34309">
        <ele>15.7</ele>
        <time>2018-01-11T09:49:37Z</time>
      </trkpt>
      <trkpt lat="49.88991" lon="2.34296">
        <ele>15</ele>
        <time>2018-01-11T09:49:43Z</time>
      </trkpt>
      <trkpt lat="49.88998" lon="2.34283">
        <ele>13.8</ele>
        <time>2018-01-11T09:49:50Z</time>
      </trkpt>
      <trkpt lat="49.89004" lon="2.34272">
        <ele>14.8</ele>
        <time>2018-01-11T09:49:56Z</time>
      </trkpt>
      <trkpt lat="49.8901" lon="2.34263">
        <ele>14.7</ele>
        <time>2018-01-11T09:50:02Z</time>
      </trkpt>
      <trkpt lat="49.89018" lon="2.34253">
        <ele>14</ele>
        <time>2018-01-11T09:50:08Z</time>
      </trkpt>
      <trkpt lat="49.89025" lon="2.34243">
        <ele>14.3</ele>
        <time>2018-01-11T09:50:14Z</time>
      </trkpt>
      <trkpt lat="49.89031" lon="2.34231">
        <ele>14</ele>
        <time>2018-01-11T09:50:20Z</time>
      </trkpt>
      <trkpt lat="49.89038" lon="2.3422">
        <ele>13</ele>
        <time>2018-01-11T09:50:26Z</time>
      </trkpt>
      <trkpt lat="49.89044" lon="2.34207">
        <ele>13</ele>
        <time>2018-01-11T09:50:32Z</time>
      </trkpt>
      <trkpt lat="49.8905" lon="2.34195">
        <ele>13.1</ele>
        <time>2018-01-11T09:50:38Z</time>
      </trkpt>
      <trkpt lat="49.89055" lon="2.34182">
        <ele>12.7</ele>
        <time>2018-01-11T09:50:44Z</time>
      </trkpt>
      <trkpt lat="49.89061" lon="2.3417">
        <ele>11.3</ele>
        <time>2018-01-11T09:50:51Z</time>
      </trkpt>
      <trkpt lat="49.89066" lon="2.34158">
        <ele>12.1</ele>
        <time>2018-01-11T09:50:57Z</time>
      </trkpt>
      <trkpt lat="49.89071" lon="2.34145">
        <ele>10.8</ele>
        <time>2018-01-11T09:51:03Z</time>
      </trkpt>
      <trkpt lat="49.89076" lon="2.34131">
        <ele>11.4</ele>
        <time>2018-01-11T09:51:09Z</time>
      </trkpt>
      <trkpt lat="49.8908" lon="2.34117">
        <ele>11.5</ele>
        <time>2018-01-11T09:51:16Z</time>
      </trkpt>
      <trkpt lat="49.89082" lon="2.34103">
        <ele>10.3</ele>
        <time>2018-01-11T09:51:40Z</time>
      </trkpt>
      <trkpt lat="49.89086" lon="2.3409">
        <ele>9.5</ele>
        <time>2018-01-11T09:52:16Z</time>
      </trkpt>
      <trkpt lat="49.89094" lon="2.34082">
        <ele>8</ele>
        <time>2018-01-11T09:52:23Z</time>
      </trkpt>
      <trkpt lat="49.89102" lon="2.34074">
        <ele>8.9</ele>
        <time>2018-01-11T09:52:34Z</time>
      </trkpt>
      <trkpt lat="49.89111" lon="2.34065">
        <ele>9.1</ele>
        <time>2018-01-11T09:52:42Z</time>
      </trkpt>
      <trkpt lat="49.89119" lon="2.34055">
        <ele>9.1</ele>
        <time>2018-01-11T09:52:51Z</time>
      </trkpt>
      <trkpt lat="49.89125" lon="2.34045">
        <ele>9.5</ele>
        <time>2018-01-11T09:52:59Z</time>
      </trkpt>
      <trkpt lat="49.89132" lon="2.34035">
        <ele>9.7</ele>
        <time>2018-01-11T09:53:07Z</time>
      </trkpt>
      <trkpt lat="49.89139" lon="2.34025">
        <ele>9.6</ele>
        <time>2018-01-11T09:53:13Z</time>
      </trkpt>
      <trkpt lat="49.89148" lon="2.34018">
        <ele>9.1</ele>
        <time>2018-01-11T09:53:19Z</time>
      </trkpt>
      <trkpt lat="49.89155" lon="2.34008">
        <ele>9.2</ele>
        <time>2018-01-11T09:53:25Z</time>
      </trkpt>
      <trkpt lat="49.89163" lon="2.33999">
        <ele>8.3</ele>
        <time>2018-01-11T09:53:32Z</time>
      </trkpt>
      <trkpt lat="49.89167" lon="2.33987">
        <ele>6.9</ele>
        <time>2018-01-11T09:53:40Z</time>
      </trkpt>
      <trkpt lat="49.89172" lon="2.33974">
        <ele>7.4</ele>
        <time>2018-01-11T09:53:49Z</time>
      </trkpt>
      <trkpt lat="49.89181" lon="2.33966">
        <ele>7.8</ele>
        <time>2018-01-11T09:53:56Z</time>
      </trkpt>
      <trkpt lat="49.89189" lon="2.3396">
        <ele>7.9</ele>
        <time>2018-01-11T09:54:03Z</time>
      </trkpt>
      <trkpt lat="49.89197" lon="2.33951">
        <ele>9.3</ele>
        <time>2018-01-11T09:54:10Z</time>
      </trkpt>
      <trkpt lat="49.89207" lon="2.33942">
        <ele>8.9</ele>
        <time>2018-01-11T09:54:15Z</time>
      </trkpt>
      <trkpt lat="49.89216" lon="2.33933">
        <ele>8.6</ele>
        <time>2018-01-11T09:54:20Z</time>
      </trkpt>
      <trkpt lat="49.89223" lon="2.33923">
        <ele>7</ele>
        <time>2018-01-11T09:54:26Z</time>
      </trkpt>
      <trkpt lat="49.89231" lon="2.33913">
        <ele>7.8</ele>
        <time>2018-01-11T09:54:32Z</time>
      </trkpt>
      <trkpt lat="49.8924" lon="2.33905">
        <ele>8.3</ele>
        <time>2018-01-11T09:54:38Z</time>
      </trkpt>
      <trkpt lat="49.89248" lon="2.33896">
        <ele>6.8</ele>
        <time>2018-01-11T09:54:44Z</time>
      </trkpt>
      <trkpt lat="49.89257" lon="2.33887">
        <ele>6.4</ele>
        <time>2018-01-11T09:54:50Z</time>
      </trkpt>
      <trkpt lat="49.89264" lon="2.33878">
        <ele>7.8</ele>
        <time>2018-01-11T09:54:57Z</time>
      </trkpt>
      <trkpt lat="49.89272" lon="2.33869">
        <ele>7.7</ele>
        <time>2018-01-11T09:55:05Z</time>
      </trkpt>
      <trkpt lat="49.89274" lon="2.33854">
        <ele>5.7</ele>
        <time>2018-01-11T09:55:11Z</time>
      </trkpt>
      <trkpt lat="49.89279" lon="2.33841">
        <ele>7.3</ele>
        <time>2018-01-11T09:55:17Z</time>
      </trkpt>
      <trkpt lat="49.89284" lon="2.3383">
        <ele>7.4</ele>
        <time>2018-01-11T09:55:23Z</time>
      </trkpt>
      <trkpt lat="49.89289" lon="2.33817">
        <ele>6.7</ele>
        <time>2018-01-11T09:55:30Z</time>
      </trkpt>
      <trkpt lat="49.89297" lon="2.33809">
        <ele>6.7</ele>
        <time>2018-01-11T09:55:48Z</time>
      </trkpt>
      <trkpt lat="49.89306" lon="2.3381">
        <ele>6.2</ele>
        <time>2018-01-11T09:56:05Z</time>
      </trkpt>
      <trkpt lat="49.89315" lon="2.33818">
        <ele>6.2</ele>
        <time>2018-01-11T09:56:13Z</time>
      </trkpt>
      <trkpt lat="49.89324" lon="2.33814">
        <ele>6.4</ele>
        <time>2018-01-11T09:56:20Z</time>
      </trkpt>
      <trkpt lat="49.89334" lon="2.33809">
        <ele>7.5</ele>
        <time>2018-01-11T09:56:27Z</time>
      </trkpt>
      <trkpt lat="49.89341" lon="2.33802">
        <ele>7.6</ele>
        <time>2018-01-11T09:56:34Z</time>
      </trkpt>
      <trkpt lat="49.89351" lon="2.33797">
        <ele>7.9</ele>
        <time>2018-01-11T09:56:40Z</time>
      </trkpt>
      <trkpt lat="49.89361" lon="2.33792">
        <ele>7.8</ele>
        <time>2018-01-11T09:56:47Z</time>
      </trkpt>
      <trkpt lat="49.8937" lon="2.33784">
        <ele>7.2</ele>
        <time>2018-01-11T09:56:54Z</time>
      </trkpt>
      <trkpt lat="49.8938" lon="2.33776">
        <ele>7.6</ele>
        <time>2018-01-11T09:57:00Z</time>
      </trkpt>
      <trkpt lat="49.89389" lon="2.33769">
        <ele>7.9</ele>
        <time>2018-01-11T09:57:06Z</time>
      </trkpt>
      <trkpt lat="49.89398" lon="2.33761">
        <ele>7.6</ele>
        <time>2018-01-11T09:57:13Z</time>
      </trkpt>
      <trkpt lat="49.89406" lon="2.33753">
        <ele>7.4</ele>
        <time>2018-01-11T09:57:19Z</time>
      </trkpt>
      <trkpt lat="49.89413" lon="2.33743">
        <ele>8.3</ele>
        <time>2018-01-11T09:57:28Z</time>
      </trkpt>
      <trkpt lat="49.89421" lon="2.33731">
        <ele>8.1</ele>
        <time>2018-01-11T09:57:34Z</time>
      </trkpt>
      <trkpt lat="49.89429" lon="2.33722">
        <ele>8.1</ele>
        <time>2018-01-11T09:57:40Z</time>
      </trkpt>
      <trkpt lat="49.89438" lon="2.33715">
        <ele>8.5</ele>
        <time>2018-01-11T09:57:45Z</time>
      </trkpt>
      <trkpt lat="49.89446" lon="2.33705">
        <ele>8.6</ele>
        <time>2018-01-11T09:57:51Z</time>
      </trkpt>
      <trkpt lat="49.89452" lon="2.33695">
        <ele>7.9</ele>
        <time>2018-01-11T09:57:56Z</time>
      </trkpt>
      <trkpt lat="49.8946" lon="2.33684">
        <ele>8</ele>
        <time>2018-01-11T09:58:02Z</time>
      </trkpt>
      <trkpt lat="49.89467" lon="2.33674">
        <ele>8.7</ele>
        <time>2018-01-11T09:58:08Z</time>
      </trkpt>
      <trkpt lat="49.89473" lon="2.33661">
        <ele>8.8</ele>
        <time>2018-01-11T09:58:15Z</time>
      </trkpt>
      <trkpt lat="49.8948" lon="2.3365">
        <ele>6.9</ele>
        <time>2018-01-11T09:58:22Z</time>
      </trkpt>
      <trkpt lat="49.89488" lon="2.33639">
        <ele>8.2</ele>
        <time>2018-01-11T09:58:28Z</time>
      </trkpt>
      <trkpt lat="49.89495" lon="2.3363">
        <ele>8.2</ele>
        <time>2018-01-11T09:58:34Z</time>
      </trkpt>
      <trkpt lat="49.89503" lon="2.33619">
        <ele>7.1</ele>
        <time>2018-01-11T09:58:40Z</time>
      </trkpt>
      <trkpt lat="49.8951" lon="2.33609">
        <ele>7.9</ele>
        <time>2018-01-11T09:58:46Z</time>
      </trkpt>
      <trkpt lat="49.89517" lon="2.33596">
        <ele>7.7</ele>
        <time>2018-01-11T09:58:53Z</time>
      </trkpt>
      <trkpt lat="49.89523" lon="2.33583">
        <ele>6.7</ele>
        <time>2018-01-11T09:58:59Z</time>
      </trkpt>
      <trkpt lat="49.8953" lon="2.33573">
        <ele>7.1</ele>
        <time>2018-01-11T09:59:05Z</time>
      </trkpt>
      <trkpt lat="49.89537" lon="2.33561">
        <ele>8</ele>
        <time>2018-01-11T09:59:12Z</time>
      </trkpt>
      <trkpt lat="49.89544" lon="2.33549">
        <ele>7.3</ele>
        <time>2018-01-11T09:59:18Z</time>
      </trkpt>
      <trkpt lat="49.89551" lon="2.33539">
        <ele>7.1</ele>
        <time>2018-01-11T09:59:24Z</time>
      </trkpt>
      <trkpt lat="49.89559" lon="2.3353">
        <ele>8</ele>
        <time>2018-01-11T09:59:30Z</time>
      </trkpt>
      <trkpt lat="49.89565" lon="2.33517">
        <ele>8.2</ele>
        <time>2018-01-11T09:59:36Z</time>
      </trkpt>
      <trkpt lat="49.8957" lon="2.33505">
        <ele>7.3</ele>
        <time>2018-01-11T09:59:44Z</time>
      </trkpt>
      <trkpt lat="49.89568" lon="2.3349">
        <ele>8.2</ele>
        <time>2018-01-11T09:59:52Z</time>
      </trkpt>
      <trkpt lat="49.89567" lon="2.33475">
        <ele>8.2</ele>
        <time>2018-01-11T09:59:59Z</time>
      </trkpt>
      <trkpt lat="49.89571" lon="2.33462">
        <ele>7.1</ele>
        <time>2018-01-11T10:00:08Z</time>
      </trkpt>
      <trkpt lat="49.89577" lon="2.33449">
        <ele>6.9</ele>
        <time>2018-01-11T10:00:14Z</time>
      </trkpt>
      <trkpt lat="49.89584" lon="2.33436">
        <ele>6.8</ele>
        <time>2018-01-11T10:00:21Z</time>
      </trkpt>
      <trkpt lat="49.89588" lon="2.33422">
        <ele>6.5</ele>
        <time>2018-01-11T10:00:28Z</time>
      </trkpt>
      <trkpt lat="49.89592" lon="2.33408">
        <ele>6.6</ele>
        <time>2018-01-11T10:00:41Z</time>
      </trkpt>
      <trkpt lat="49.89599" lon="2.33397">
        <ele>6.6</ele>
        <time>2018-01-11T10:00:48Z</time>
      </trkpt>
      <trkpt lat="49.89603" lon="2.33382">
        <ele>7.3</ele>
        <time>2018-01-11T10:00:55Z</time>
      </trkpt>
      <trkpt lat="49.89608" lon="2.33369">
        <ele>6.3</ele>
        <time>2018-01-11T10:01:02Z</time>
      </trkpt>
      <trkpt lat="49.89611" lon="2.33356">
        <ele>6.8</ele>
        <time>2018-01-11T10:01:10Z</time>
      </trkpt>
      <trkpt lat="49.8962" lon="2.33347">
        <ele>5</ele>
        <time>2018-01-11T10:01:19Z</time>
      </trkpt>
      <trkpt lat="49.89629" lon="2.33342">
        <ele>5.5</ele>
        <time>2018-01-11T10:01:26Z</time>
      </trkpt>
      <trkpt lat="49.89638" lon="2.33344">
        <ele>8.2</ele>
        <time>2018-01-11T10:01:45Z</time>
      </trkpt>
      <trkpt lat="49.89648" lon="2.33347">
        <ele>10.4</ele>
        <time>2018-01-11T10:01:56Z</time>
      </trkpt>
      <trkpt lat="49.89657" lon="2.33347">
        <ele>11.6</ele>
        <time>2018-01-11T10:02:07Z</time>
      </trkpt>
      <trkpt lat="49.89662" lon="2.3336">
        <ele>11.4</ele>
        <time>2018-01-11T10:02:21Z</time>
      </trkpt>
      <trkpt lat="49.89655" lon="2.33369">
        <ele>12</ele>
        <time>2018-01-11T10:02:37Z</time>
      </trkpt>
      <trkpt lat="49.89647" lon="2.33379">
        <ele>11.9</ele>
        <time>2018-01-11T10:02:45Z</time>
      </trkpt>
      <trkpt lat="49.8964" lon="2.33388">
        <ele>12.2</ele>
        <time>2018-01-11T10:02:53Z</time>
      </trkpt>
      <trkpt lat="49.89634" lon="2.33398">
        <ele>12.1</ele>
        <time>2018-01-11T10:03:01Z</time>
      </trkpt>
      <trkpt lat="49.89628" lon="2.3341">
        <ele>12.4</ele>
        <time>2018-01-11T10:03:09Z</time>
      </trkpt>
      <trkpt lat="49.89624" lon="2.33425">
        <ele>12</ele>
        <time>2018-01-11T10:03:17Z</time>
      </trkpt>
      <trkpt lat="49.8963" lon="2.33438">
        <ele>12</ele>
        <time>2018-01-11T10:03:24Z</time>
      </trkpt>
      <trkpt lat="49.89636" lon="2.33449">
        <ele>12.4</ele>
        <time>2018-01-11T10:03:31Z</time>
      </trkpt>
      <trkpt lat="49.89644" lon="2.33459">
        <ele>12.5</ele>
        <time>2018-01-11T10:03:37Z</time>
      </trkpt>
      <trkpt lat="49.89649" lon="2.3347">
        <ele>12.8</ele>
        <time>2018-01-11T10:03:43Z</time>
      </trkpt>
      <trkpt lat="49.89657" lon="2.33479">
        <ele>13.4</ele>
        <time>2018-01-11T10:03:49Z</time>
      </trkpt>
      <trkpt lat="49.89661" lon="2.33494">
        <ele>14</ele>
        <time>2018-01-11T10:03:56Z</time>
      </trkpt>
      <trkpt lat="49.89665" lon="2.33507">
        <ele>14.2</ele>
        <time>2018-01-11T10:04:03Z</time>
      </trkpt>
      <trkpt lat="49.89671" lon="2.33519">
        <ele>14.9</ele>
        <time>2018-01-11T10:04:10Z</time>
      </trkpt>
      <trkpt lat="49.8967" lon="2.33534">
        <ele>15.9</ele>
        <time>2018-01-11T10:04:20Z</time>
      </trkpt>
      <trkpt lat="49.89662" lon="2.33542">
        <ele>16.6</ele>
        <time>2018-01-11T10:04:29Z</time>
      </trkpt>
      <trkpt lat="49.89655" lon="2.33552">
        <ele>16.4</ele>
        <time>2018-01-11T10:04:35Z</time>
      </trkpt>
      <trkpt lat="49.89648" lon="2.33563">
        <ele>16.5</ele>
        <time>2018-01-11T10:04:42Z</time>
      </trkpt>
      <trkpt lat="49.89644" lon="2.33576">
        <ele>16</ele>
        <time>2018-01-11T10:04:50Z</time>
      </trkpt>
      <trkpt lat="49.89647" lon="2.33591">
        <ele>16.4</ele>
        <time>2018-01-11T10:04:56Z</time>
      </trkpt>
      <trkpt lat="49.89653" lon="2.33604">
        <ele>16.4</ele>
        <time>2018-01-11T10:05:03Z</time>
      </trkpt>
      <trkpt lat="49.89659" lon="2.33616">
        <ele>17.1</ele>
        <time>2018-01-11T10:05:10Z</time>
      </trkpt>
      <trkpt lat="49.89666" lon="2.33626">
        <ele>16.7</ele>
        <time>2018-01-11T10:05:16Z</time>
      </trkpt>
      <trkpt lat="49.89674" lon="2.33636">
        <ele>17.3</ele>
        <time>2018-01-11T10:05:22Z</time>
      </trkpt>
      <trkpt lat="49.89682" lon="2.33644">
        <ele>18.5</ele>
        <time>2018-01-11T10:05:28Z</time>
      </trkpt>
      <trkpt lat="49.8969" lon="2.33652">
        <ele>18.9</ele>
        <time>2018-01-11T10:05:34Z</time>
      </trkpt>
      <trkpt lat="49.89699" lon="2.33654">
        <ele>19.2</ele>
        <time>2018-01-11T10:05:41Z</time>
      </trkpt>
      <trkpt lat="49.89708" lon="2.3365">
        <ele>19.5</ele>
        <time>2018-01-11T10:05:48Z</time>
      </trkpt>
      <trkpt lat="49.89716" lon="2.33659">
        <ele>20</ele>
        <time>2018-01-11T10:05:56Z</time>
      </trkpt>
      <trkpt lat="49.89724" lon="2.33669">
        <ele>20.5</ele>
        <time>2018-01-11T10:06:03Z</time>
      </trkpt>
      <trkpt lat="49.89734" lon="2.33676">
        <ele>21</ele>
        <time>2018-01-11T10:06:09Z</time>
      </trkpt>
      <trkpt lat="49.89742" lon="2.33679">
        <ele>21.3</ele>
        <time>2018-01-11T10:06:15Z</time>
      </trkpt>
      <trkpt lat="49.89752" lon="2.33675">
        <ele>21.6</ele>
        <time>2018-01-11T10:06:21Z</time>
      </trkpt>
      <trkpt lat="49.8976" lon="2.33667">
        <ele>22.2</ele>
        <time>2018-01-11T10:06:27Z</time>
      </trkpt>
      <trkpt lat="49.89766" lon="2.33657">
        <ele>22.7</ele>
        <time>2018-01-11T10:06:43Z</time>
      </trkpt>
      <trkpt lat="49.89773" lon="2.33647">
        <ele>22</ele>
        <time>2018-01-11T10:08:11Z</time>
      </trkpt>
      <trkpt lat="49.89781" lon="2.33638">
        <ele>22.2</ele>
        <time>2018-01-11T10:08:19Z</time>
      </trkpt>
      <trkpt lat="49.8979" lon="2.3364">
        <ele>22.3</ele>
        <time>2018-01-11T10:08:29Z</time>
      </trkpt>
      <trkpt lat="49.89796" lon="2.33651">
        <ele>22.6</ele>
        <time>2018-01-11T10:08:41Z</time>
      </trkpt>
      <trkpt lat="49.89804" lon="2.33661">
        <ele>22.5</ele>
        <time>2018-01-11T10:08:50Z</time>
      </trkpt>
      <trkpt lat="49.89811" lon="2.3367">
        <ele>23</ele>
        <time>2018-01-11T10:08:58Z</time>
      </trkpt>
      <trkpt lat="49.89819" lon="2.33679">
        <ele>23.2</ele>
        <time>2018-01-11T10:09:07Z</time>
      </trkpt>
      <trkpt lat="49.89826" lon="2.33691">
        <ele>23</ele>
        <time>2018-01-11T10:09:17Z</time>
      </trkpt>
      <trkpt lat="49.89833" lon="2.33699">
        <ele>23.5</ele>
        <time>2018-01-11T10:09:25Z</time>
      </trkpt>
      <trkpt lat="49.8984" lon="2.3371">
        <ele>24.3</ele>
        <time>2018-01-11T10:09:34Z</time>
      </trkpt>
      <trkpt lat="49.89848" lon="2.33717">
        <ele>24.4</ele>
        <time>2018-01-11T10:09:41Z</time>
      </trkpt>
      <trkpt lat="49.89856" lon="2.33728">
        <ele>25</ele>
        <time>2018-01-11T10:09:49Z</time>
      </trkpt>
      <trkpt lat="49.89863" lon="2.33739">
        <ele>25.8</ele>
        <time>2018-01-11T10:09:56Z</time>
      </trkpt>
      <trkpt lat="49.89869" lon="2.3375">
        <ele>26.1</ele>
        <time>2018-01-11T10:10:03Z</time>
      </trkpt>
      <trkpt lat="49.89876" lon="2.33761">
        <ele>26.5</ele>
        <time>2018-01-11T10:10:10Z</time>
      </trkpt>
      <trkpt lat="49.89883" lon="2.3377">
        <ele>26</ele>
        <time>2018-01-11T10:10:17Z</time>
      </trkpt>
      <trkpt lat="49.89891" lon="2.3378">
        <ele>27.1</ele>
        <time>2018-01-11T10:10:24Z</time>
      </trkpt>
      <trkpt lat="49.89899" lon="2.3379">
        <ele>27.4</ele>
        <time>2018-01-11T10:10:31Z</time>
      </trkpt>
      <trkpt lat="49.89906" lon="2.33799">
        <ele>27.7</ele>
        <time>2018-01-11T10:10:37Z</time>
      </trkpt>
      <trkpt lat="49.89913" lon="2.33807">
        <ele>27.3</ele>
        <time>2018-01-11T10:10:44Z</time>
      </trkpt>
      <trkpt lat="49.8992" lon="2.33817">
        <ele>28</ele>
        <time>2018-01-11T10:10:51Z</time>
      </trkpt>
      <trkpt lat="49.89928" lon="2.33828">
        <ele>28.6</ele>
        <time>2018-01-11T10:10:59Z</time>
      </trkpt>
      <trkpt lat="49.89935" lon="2.33838">
        <ele>28</ele>
        <time>2018-01-11T10:11:07Z</time>
      </trkpt>
      <trkpt lat="49.89943" lon="2.33848">
        <ele>28</ele>
        <time>2018-01-11T10:11:14Z</time>
      </trkpt>
      <trkpt lat="49.89951" lon="2.33856">
        <ele>29</ele>
        <time>2018-01-11T10:11:22Z</time>
      </trkpt>
      <trkpt lat="49.89958" lon="2.33866">
        <ele>29.6</ele>
        <time>2018-01-11T10:11:29Z</time>
      </trkpt>
      <trkpt lat="49.89965" lon="2.33875">
        <ele>29.8</ele>
        <time>2018-01-11T10:11:36Z</time>
      </trkpt>
      <trkpt lat="49.89974" lon="2.33885">
        <ele>29.5</ele>
        <time>2018-01-11T10:11:44Z</time>
      </trkpt>
      <trkpt lat="49.89982" lon="2.33893">
        <ele>30.2</ele>
        <time>2018-01-11T10:11:52Z</time>
      </trkpt>
      <trkpt lat="49.89989" lon="2.33903">
        <ele>30.3</ele>
        <time>2018-01-11T10:11:59Z</time>
      </trkpt>
      <trkpt lat="49.89997" lon="2.33911">
        <ele>29.9</ele>
        <time>2018-01-11T10:12:07Z</time>
      </trkpt>
      <trkpt lat="49.90006" lon="2.33916">
        <ele>31.1</ele>
        <time>2018-01-11T10:12:15Z</time>
      </trkpt>
      <trkpt lat="49.90015" lon="2.33924">
        <ele>31.7</ele>
        <time>2018-01-11T10:12:23Z</time>
      </trkpt>
      <trkpt lat="49.90024" lon="2.3393">
        <ele>31.5</ele>
        <time>2018-01-11T10:12:30Z</time>
      </trkpt>
      <trkpt lat="49.90033" lon="2.33935">
        <ele>31.1</ele>
        <time>2018-01-11T10:12:37Z</time>
      </trkpt>
      <trkpt lat="49.90043" lon="2.3394">
        <ele>31.7</ele>
        <time>2018-01-11T10:12:44Z</time>
      </trkpt>
      <trkpt lat="49.90052" lon="2.33946">
        <ele>32.2</ele>
        <time>2018-01-11T10:12:52Z</time>
      </trkpt>
      <trkpt lat="49.9006" lon="2.33953">
        <ele>29.7</ele>
        <time>2018-01-11T10:13:00Z</time>
      </trkpt>
      <trkpt lat="49.9007" lon="2.33957">
        <ele>32.6</ele>
        <time>2018-01-11T10:13:07Z</time>
      </trkpt>
      <trkpt lat="49.90078" lon="2.33962">
        <ele>32.4</ele>
        <time>2018-01-11T10:13:13Z</time>
      </trkpt>
      <trkpt lat="49.90088" lon="2.3397">
        <ele>31.7</ele>
        <time>2018-01-11T10:13:19Z</time>
      </trkpt>
      <trkpt lat="49.90096" lon="2.33977">
        <ele>31.4</ele>
        <time>2018-01-11T10:13:26Z</time>
      </trkpt>
      <trkpt lat="49.90105" lon="2.33985">
        <ele>31.4</ele>
        <time>2018-01-11T10:13:33Z</time>
      </trkpt>
      <trkpt lat="49.90106" lon="2.33999">
        <ele>31.5</ele>
        <time>2018-01-11T10:13:49Z</time>
      </trkpt>
      <trkpt lat="49.90103" lon="2.34014">
        <ele>31.7</ele>
        <time>2018-01-11T10:13:55Z</time>
      </trkpt>
      <trkpt lat="49.90101" lon="2.34029">
        <ele>31.7</ele>
        <time>2018-01-11T10:14:00Z</time>
      </trkpt>
      <trkpt lat="49.901" lon="2.34044">
        <ele>31.8</ele>
        <time>2018-01-11T10:14:06Z</time>
      </trkpt>
      <trkpt lat="49.901" lon="2.34058">
        <ele>32.2</ele>
        <time>2018-01-11T10:14:13Z</time>
      </trkpt>
      <trkpt lat="49.90099" lon="2.34073">
        <ele>32.7</ele>
        <time>2018-01-11T10:14:25Z</time>
      </trkpt>
      <trkpt lat="49.9009" lon="2.34081">
        <ele>33.3</ele>
        <time>2018-01-11T10:14:34Z</time>
      </trkpt>
      <trkpt lat="49.90083" lon="2.34091">
        <ele>33.5</ele>
        <time>2018-01-11T10:14:39Z</time>
      </trkpt>
      <trkpt lat="49.90075" lon="2.34097">
        <ele>33.8</ele>
        <time>2018-01-11T10:14:47Z</time>
      </trkpt>
      <trkpt lat="49.90065" lon="2.34098">
        <ele>33.8</ele>
        <time>2018-01-11T10:14:54Z</time>
      </trkpt>
      <trkpt lat="49.90056" lon="2.34099">
        <ele>33.6</ele>
        <time>2018-01-11T10:15:03Z</time>
      </trkpt>
      <trkpt lat="49.90046" lon="2.34101">
        <ele>33.5</ele>
        <time>2018-01-11T10:15:10Z</time>
      </trkpt>
      <trkpt lat="49.90036" lon="2.34094">
        <ele>33.4</ele>
        <time>2018-01-11T10:15:20Z</time>
      </trkpt>
      <trkpt lat="49.90028" lon="2.34088">
        <ele>32.9</ele>
        <time>2018-01-11T10:15:29Z</time>
      </trkpt>
      <trkpt lat="49.90033" lon="2.34075">
        <ele>32.9</ele>
        <time>2018-01-11T10:15:38Z</time>
      </trkpt>
      <trkpt lat="49.90038" lon="2.34075">
        <ele>32.5</ele>
        <time>2018-01-11T10:15:51Z</time>
      </trkpt>
    </trkseg>
  </trk>
</gpx>